<?xml version="1.0" encoding="UTF-8" standalone="no" ?>
<gpx xmlns="http://www.topografix.com/GPX/1/1" xmlns:xsi="http://www.w3.org/2001/XMLSchema-instance" xsi:schemaLocation="http://www.topografix.com/GPX/1/1 http://www.topografix.com/GPX/1/1/gpx.xsd" version="1.1" creator="VisuGPX - https://www.visugpx.com">
  <metadata>
    <name>Randonnée plage de la Pissotte.</name>
    <desc><![CDATA[la Chêniére-port Sant Jean-plage de la Pisotte-pointe de l'Isle.]]></desc>
  </metadata>
  <trk>
    <name><![CDATA[2018-06-15 11:58:12]]></name>
    <trkseg>
      <trkpt lat="48.62214" lon="-2.29435">
        <ele>228.96</ele>
        <time>2018-06-15T07:18:22Z</time>
      </trkpt>
      <trkpt lat="48.62215" lon="-2.29435">
        <ele>228.96</ele>
        <time>2018-06-15T07:18:23Z</time>
      </trkpt>
      <trkpt lat="48.62267" lon="-2.29393">
        <ele>227.91</ele>
        <time>2018-06-15T07:18:43Z</time>
      </trkpt>
      <trkpt lat="48.62266" lon="-2.29396">
        <ele>227.03</ele>
        <time>2018-06-15T07:19:01Z</time>
      </trkpt>
      <trkpt lat="48.62267" lon="-2.29396">
        <ele>222.12</ele>
        <time>2018-06-15T07:19:03Z</time>
      </trkpt>
      <trkpt lat="48.62267" lon="-2.29395">
        <ele>228.94</ele>
        <time>2018-06-15T07:19:04Z</time>
      </trkpt>
      <trkpt lat="48.62266" lon="-2.29393">
        <ele>226.72</ele>
        <time>2018-06-15T07:19:29Z</time>
      </trkpt>
      <trkpt lat="48.6226" lon="-2.29389">
        <ele>226.17</ele>
        <time>2018-06-15T07:19:53Z</time>
      </trkpt>
      <trkpt lat="48.62262" lon="-2.29388">
        <ele>226.35</ele>
        <time>2018-06-15T07:20:11Z</time>
      </trkpt>
      <trkpt lat="48.62263" lon="-2.29386">
        <ele>226.3</ele>
        <time>2018-06-15T07:20:14Z</time>
      </trkpt>
      <trkpt lat="48.62264" lon="-2.29382">
        <ele>226.75</ele>
        <time>2018-06-15T07:20:17Z</time>
      </trkpt>
      <trkpt lat="48.6227" lon="-2.29353">
        <ele>225.93</ele>
        <time>2018-06-15T07:20:36Z</time>
      </trkpt>
      <trkpt lat="48.62272" lon="-2.29336">
        <ele>225.71</ele>
        <time>2018-06-15T07:20:54Z</time>
      </trkpt>
      <trkpt lat="48.62282" lon="-2.2932">
        <ele>228.11</ele>
        <time>2018-06-15T07:21:16Z</time>
      </trkpt>
      <trkpt lat="48.6229" lon="-2.293">
        <ele>229.77</ele>
        <time>2018-06-15T07:21:39Z</time>
      </trkpt>
      <trkpt lat="48.62302" lon="-2.29281">
        <ele>230.12</ele>
        <time>2018-06-15T07:22:03Z</time>
      </trkpt>
      <trkpt lat="48.62308" lon="-2.29235">
        <ele>228.38</ele>
        <time>2018-06-15T07:22:23Z</time>
      </trkpt>
      <trkpt lat="48.62318" lon="-2.29229">
        <ele>226.77</ele>
        <time>2018-06-15T07:22:34Z</time>
      </trkpt>
      <trkpt lat="48.62338" lon="-2.29221">
        <ele>223.36</ele>
        <time>2018-06-15T07:22:51Z</time>
      </trkpt>
      <trkpt lat="48.62347" lon="-2.29219">
        <ele>220.06</ele>
        <time>2018-06-15T07:23:04Z</time>
      </trkpt>
      <trkpt lat="48.62353" lon="-2.29226">
        <ele>218.03</ele>
        <time>2018-06-15T07:23:22Z</time>
      </trkpt>
      <trkpt lat="48.62358" lon="-2.29227">
        <ele>218.84</ele>
        <time>2018-06-15T07:23:38Z</time>
      </trkpt>
      <trkpt lat="48.6237" lon="-2.29224">
        <ele>220.89</ele>
        <time>2018-06-15T07:23:56Z</time>
      </trkpt>
      <trkpt lat="48.62387" lon="-2.29228">
        <ele>221.76</ele>
        <time>2018-06-15T07:24:20Z</time>
      </trkpt>
      <trkpt lat="48.62404" lon="-2.29223">
        <ele>222.96</ele>
        <time>2018-06-15T07:24:43Z</time>
      </trkpt>
      <trkpt lat="48.62408" lon="-2.29226">
        <ele>222.4</ele>
        <time>2018-06-15T07:24:47Z</time>
      </trkpt>
      <trkpt lat="48.62433" lon="-2.29235">
        <ele>221.76</ele>
        <time>2018-06-15T07:25:10Z</time>
      </trkpt>
      <trkpt lat="48.62442" lon="-2.29236">
        <ele>220.21</ele>
        <time>2018-06-15T07:25:19Z</time>
      </trkpt>
      <trkpt lat="48.62459" lon="-2.29238">
        <ele>218.54</ele>
        <time>2018-06-15T07:25:33Z</time>
      </trkpt>
      <trkpt lat="48.62471" lon="-2.29243">
        <ele>216.03</ele>
        <time>2018-06-15T07:25:47Z</time>
      </trkpt>
      <trkpt lat="48.6248" lon="-2.29251">
        <ele>212.66</ele>
        <time>2018-06-15T07:26:05Z</time>
      </trkpt>
      <trkpt lat="48.62482" lon="-2.29253">
        <ele>210.85</ele>
        <time>2018-06-15T07:26:09Z</time>
      </trkpt>
      <trkpt lat="48.62484" lon="-2.29262">
        <ele>207.38</ele>
        <time>2018-06-15T07:26:21Z</time>
      </trkpt>
      <trkpt lat="48.62484" lon="-2.2927">
        <ele>203.76</ele>
        <time>2018-06-15T07:26:33Z</time>
      </trkpt>
      <trkpt lat="48.6248" lon="-2.29274">
        <ele>200.61</ele>
        <time>2018-06-15T07:26:45Z</time>
      </trkpt>
      <trkpt lat="48.62482" lon="-2.29283">
        <ele>197.49</ele>
        <time>2018-06-15T07:27:01Z</time>
      </trkpt>
      <trkpt lat="48.62486" lon="-2.29283">
        <ele>195.88</ele>
        <time>2018-06-15T07:27:14Z</time>
      </trkpt>
      <trkpt lat="48.62495" lon="-2.29281">
        <ele>196.11</ele>
        <time>2018-06-15T07:27:27Z</time>
      </trkpt>
      <trkpt lat="48.625" lon="-2.29282">
        <ele>195.53</ele>
        <time>2018-06-15T07:27:30Z</time>
      </trkpt>
      <trkpt lat="48.62505" lon="-2.2928">
        <ele>195.49</ele>
        <time>2018-06-15T07:27:34Z</time>
      </trkpt>
      <trkpt lat="48.62513" lon="-2.29268">
        <ele>197.52</ele>
        <time>2018-06-15T07:27:47Z</time>
      </trkpt>
      <trkpt lat="48.62519" lon="-2.29264">
        <ele>196.02</ele>
        <time>2018-06-15T07:27:53Z</time>
      </trkpt>
      <trkpt lat="48.62523" lon="-2.29247">
        <ele>195.73</ele>
        <time>2018-06-15T07:28:06Z</time>
      </trkpt>
      <trkpt lat="48.62523" lon="-2.29212">
        <ele>196.56</ele>
        <time>2018-06-15T07:28:29Z</time>
      </trkpt>
      <trkpt lat="48.62523" lon="-2.29195">
        <ele>195.12</ele>
        <time>2018-06-15T07:28:49Z</time>
      </trkpt>
      <trkpt lat="48.62524" lon="-2.29189">
        <ele>192.44</ele>
        <time>2018-06-15T07:29:16Z</time>
      </trkpt>
      <trkpt lat="48.62526" lon="-2.29191">
        <ele>189.82</ele>
        <time>2018-06-15T07:29:44Z</time>
      </trkpt>
      <trkpt lat="48.62525" lon="-2.29189">
        <ele>186.81</ele>
        <time>2018-06-15T07:30:13Z</time>
      </trkpt>
      <trkpt lat="48.62523" lon="-2.29182">
        <ele>184.94</ele>
        <time>2018-06-15T07:30:34Z</time>
      </trkpt>
      <trkpt lat="48.62525" lon="-2.29174">
        <ele>183.61</ele>
        <time>2018-06-15T07:30:42Z</time>
      </trkpt>
      <trkpt lat="48.62525" lon="-2.29165">
        <ele>183.39</ele>
        <time>2018-06-15T07:30:47Z</time>
      </trkpt>
      <trkpt lat="48.62528" lon="-2.29142">
        <ele>180.21</ele>
        <time>2018-06-15T07:31:04Z</time>
      </trkpt>
      <trkpt lat="48.62529" lon="-2.29133">
        <ele>176.96</ele>
        <time>2018-06-15T07:31:13Z</time>
      </trkpt>
      <trkpt lat="48.6253" lon="-2.29131">
        <ele>176.67</ele>
        <time>2018-06-15T07:31:14Z</time>
      </trkpt>
      <trkpt lat="48.62529" lon="-2.2912">
        <ele>175.25</ele>
        <time>2018-06-15T07:31:22Z</time>
      </trkpt>
      <trkpt lat="48.62531" lon="-2.29112">
        <ele>174.24</ele>
        <time>2018-06-15T07:31:26Z</time>
      </trkpt>
      <trkpt lat="48.62537" lon="-2.29096">
        <ele>170.86</ele>
        <time>2018-06-15T07:31:40Z</time>
      </trkpt>
      <trkpt lat="48.62538" lon="-2.29095">
        <ele>170.31</ele>
        <time>2018-06-15T07:31:41Z</time>
      </trkpt>
      <trkpt lat="48.6254" lon="-2.29092">
        <ele>170.12</ele>
        <time>2018-06-15T07:31:43Z</time>
      </trkpt>
      <trkpt lat="48.62555" lon="-2.29063">
        <ele>167.86</ele>
        <time>2018-06-15T07:31:59Z</time>
      </trkpt>
      <trkpt lat="48.62564" lon="-2.29048">
        <ele>166.31</ele>
        <time>2018-06-15T07:32:12Z</time>
      </trkpt>
      <trkpt lat="48.62568" lon="-2.29036">
        <ele>166.44</ele>
        <time>2018-06-15T07:32:20Z</time>
      </trkpt>
      <trkpt lat="48.62576" lon="-2.29015">
        <ele>166.03</ele>
        <time>2018-06-15T07:32:35Z</time>
      </trkpt>
      <trkpt lat="48.62587" lon="-2.28997">
        <ele>164.87</ele>
        <time>2018-06-15T07:32:52Z</time>
      </trkpt>
      <trkpt lat="48.62599" lon="-2.28975">
        <ele>163.66</ele>
        <time>2018-06-15T07:33:13Z</time>
      </trkpt>
      <trkpt lat="48.62615" lon="-2.28963">
        <ele>162.99</ele>
        <time>2018-06-15T07:33:35Z</time>
      </trkpt>
      <trkpt lat="48.62634" lon="-2.2893">
        <ele>159.56</ele>
        <time>2018-06-15T07:33:57Z</time>
      </trkpt>
      <trkpt lat="48.62642" lon="-2.28905">
        <ele>157.64</ele>
        <time>2018-06-15T07:34:12Z</time>
      </trkpt>
      <trkpt lat="48.62649" lon="-2.28882">
        <ele>154.77</ele>
        <time>2018-06-15T07:34:30Z</time>
      </trkpt>
      <trkpt lat="48.62662" lon="-2.2886">
        <ele>152.33</ele>
        <time>2018-06-15T07:34:50Z</time>
      </trkpt>
      <trkpt lat="48.62667" lon="-2.28841">
        <ele>152.19</ele>
        <time>2018-06-15T07:35:09Z</time>
      </trkpt>
      <trkpt lat="48.62675" lon="-2.28827">
        <ele>150.46</ele>
        <time>2018-06-15T07:35:28Z</time>
      </trkpt>
      <trkpt lat="48.62683" lon="-2.28817">
        <ele>147.34</ele>
        <time>2018-06-15T07:35:42Z</time>
      </trkpt>
      <trkpt lat="48.62694" lon="-2.28798">
        <ele>145.75</ele>
        <time>2018-06-15T07:35:54Z</time>
      </trkpt>
      <trkpt lat="48.62703" lon="-2.28787">
        <ele>145.36</ele>
        <time>2018-06-15T07:36:09Z</time>
      </trkpt>
      <trkpt lat="48.62712" lon="-2.28789">
        <ele>144.13</ele>
        <time>2018-06-15T07:36:27Z</time>
      </trkpt>
      <trkpt lat="48.62714" lon="-2.28792">
        <ele>142.75</ele>
        <time>2018-06-15T07:36:40Z</time>
      </trkpt>
      <trkpt lat="48.62712" lon="-2.28792">
        <ele>142.05</ele>
        <time>2018-06-15T07:36:49Z</time>
      </trkpt>
      <trkpt lat="48.62715" lon="-2.28785">
        <ele>142.03</ele>
        <time>2018-06-15T07:36:55Z</time>
      </trkpt>
      <trkpt lat="48.62715" lon="-2.28771">
        <ele>140.66</ele>
        <time>2018-06-15T07:37:14Z</time>
      </trkpt>
      <trkpt lat="48.6271" lon="-2.28767">
        <ele>139.8</ele>
        <time>2018-06-15T07:37:33Z</time>
      </trkpt>
      <trkpt lat="48.6271" lon="-2.28764">
        <ele>138.73</ele>
        <time>2018-06-15T07:37:53Z</time>
      </trkpt>
      <trkpt lat="48.62707" lon="-2.28764">
        <ele>136.48</ele>
        <time>2018-06-15T07:38:14Z</time>
      </trkpt>
      <trkpt lat="48.62705" lon="-2.28761">
        <ele>135.2</ele>
        <time>2018-06-15T07:38:37Z</time>
      </trkpt>
      <trkpt lat="48.62705" lon="-2.2876">
        <ele>133.35</ele>
        <time>2018-06-15T07:39:02Z</time>
      </trkpt>
      <trkpt lat="48.62702" lon="-2.28759">
        <ele>131.48</ele>
        <time>2018-06-15T07:39:28Z</time>
      </trkpt>
      <trkpt lat="48.62706" lon="-2.28763">
        <ele>128.81</ele>
        <time>2018-06-15T07:40:05Z</time>
      </trkpt>
      <trkpt lat="48.62704" lon="-2.28763">
        <ele>125.92</ele>
        <time>2018-06-15T07:40:39Z</time>
      </trkpt>
      <trkpt lat="48.62704" lon="-2.28764">
        <ele>124.59</ele>
        <time>2018-06-15T07:40:59Z</time>
      </trkpt>
      <trkpt lat="48.62704" lon="-2.28762">
        <ele>123.78</ele>
        <time>2018-06-15T07:41:23Z</time>
      </trkpt>
      <trkpt lat="48.62705" lon="-2.28763">
        <ele>122.58</ele>
        <time>2018-06-15T07:41:46Z</time>
      </trkpt>
      <trkpt lat="48.62706" lon="-2.28766">
        <ele>120.44</ele>
        <time>2018-06-15T07:42:14Z</time>
      </trkpt>
      <trkpt lat="48.62704" lon="-2.28768">
        <ele>119.57</ele>
        <time>2018-06-15T07:42:32Z</time>
      </trkpt>
      <trkpt lat="48.62702" lon="-2.28763">
        <ele>118.38</ele>
        <time>2018-06-15T07:42:46Z</time>
      </trkpt>
      <trkpt lat="48.62703" lon="-2.28758">
        <ele>116.71</ele>
        <time>2018-06-15T07:43:12Z</time>
      </trkpt>
      <trkpt lat="48.62706" lon="-2.28751">
        <ele>113.6</ele>
        <time>2018-06-15T07:43:29Z</time>
      </trkpt>
      <trkpt lat="48.62718" lon="-2.28746">
        <ele>111.79</ele>
        <time>2018-06-15T07:43:45Z</time>
      </trkpt>
      <trkpt lat="48.62728" lon="-2.28756">
        <ele>111.55</ele>
        <time>2018-06-15T07:43:57Z</time>
      </trkpt>
      <trkpt lat="48.62747" lon="-2.28769">
        <ele>111.45</ele>
        <time>2018-06-15T07:44:21Z</time>
      </trkpt>
      <trkpt lat="48.6276" lon="-2.28776">
        <ele>113.97</ele>
        <time>2018-06-15T07:44:39Z</time>
      </trkpt>
      <trkpt lat="48.62766" lon="-2.28784">
        <ele>115.97</ele>
        <time>2018-06-15T07:44:58Z</time>
      </trkpt>
      <trkpt lat="48.62766" lon="-2.28796">
        <ele>117.87</ele>
        <time>2018-06-15T07:45:13Z</time>
      </trkpt>
      <trkpt lat="48.62765" lon="-2.28821">
        <ele>119.43</ele>
        <time>2018-06-15T07:45:34Z</time>
      </trkpt>
      <trkpt lat="48.62764" lon="-2.28828">
        <ele>120.03</ele>
        <time>2018-06-15T07:45:39Z</time>
      </trkpt>
      <trkpt lat="48.62759" lon="-2.28844">
        <ele>118.18</ele>
        <time>2018-06-15T07:45:50Z</time>
      </trkpt>
      <trkpt lat="48.62749" lon="-2.28873">
        <ele>116.22</ele>
        <time>2018-06-15T07:46:09Z</time>
      </trkpt>
      <trkpt lat="48.6275" lon="-2.28893">
        <ele>116.02</ele>
        <time>2018-06-15T07:46:19Z</time>
      </trkpt>
      <trkpt lat="48.62754" lon="-2.28907">
        <ele>116.5</ele>
        <time>2018-06-15T07:46:29Z</time>
      </trkpt>
      <trkpt lat="48.62775" lon="-2.28916">
        <ele>113.36</ele>
        <time>2018-06-15T07:46:46Z</time>
      </trkpt>
      <trkpt lat="48.62792" lon="-2.28913">
        <ele>113.78</ele>
        <time>2018-06-15T07:47:01Z</time>
      </trkpt>
      <trkpt lat="48.62799" lon="-2.28911">
        <ele>114.24</ele>
        <time>2018-06-15T07:47:08Z</time>
      </trkpt>
      <trkpt lat="48.62815" lon="-2.28896">
        <ele>116.35</ele>
        <time>2018-06-15T07:47:25Z</time>
      </trkpt>
      <trkpt lat="48.62818" lon="-2.28896">
        <ele>115.57</ele>
        <time>2018-06-15T07:47:29Z</time>
      </trkpt>
      <trkpt lat="48.62831" lon="-2.28904">
        <ele>114.73</ele>
        <time>2018-06-15T07:47:43Z</time>
      </trkpt>
      <trkpt lat="48.62844" lon="-2.28914">
        <ele>115.78</ele>
        <time>2018-06-15T07:47:57Z</time>
      </trkpt>
      <trkpt lat="48.62858" lon="-2.28919">
        <ele>113.24</ele>
        <time>2018-06-15T07:48:16Z</time>
      </trkpt>
      <trkpt lat="48.62861" lon="-2.28917">
        <ele>112.11</ele>
        <time>2018-06-15T07:48:21Z</time>
      </trkpt>
      <trkpt lat="48.62866" lon="-2.28912">
        <ele>111.19</ele>
        <time>2018-06-15T07:48:31Z</time>
      </trkpt>
      <trkpt lat="48.62869" lon="-2.28904">
        <ele>109.82</ele>
        <time>2018-06-15T07:48:36Z</time>
      </trkpt>
      <trkpt lat="48.62878" lon="-2.28879">
        <ele>110.4</ele>
        <time>2018-06-15T07:48:55Z</time>
      </trkpt>
      <trkpt lat="48.62876" lon="-2.28864">
        <ele>113.46</ele>
        <time>2018-06-15T07:49:10Z</time>
      </trkpt>
      <trkpt lat="48.6288" lon="-2.2884">
        <ele>113.87</ele>
        <time>2018-06-15T07:49:30Z</time>
      </trkpt>
      <trkpt lat="48.62881" lon="-2.28812">
        <ele>114.12</ele>
        <time>2018-06-15T07:49:50Z</time>
      </trkpt>
      <trkpt lat="48.62887" lon="-2.28797">
        <ele>112.11</ele>
        <time>2018-06-15T07:50:03Z</time>
      </trkpt>
      <trkpt lat="48.6289" lon="-2.28776">
        <ele>111.4</ele>
        <time>2018-06-15T07:50:14Z</time>
      </trkpt>
      <trkpt lat="48.62897" lon="-2.28757">
        <ele>111.76</ele>
        <time>2018-06-15T07:50:29Z</time>
      </trkpt>
      <trkpt lat="48.62906" lon="-2.28732">
        <ele>112.28</ele>
        <time>2018-06-15T07:50:48Z</time>
      </trkpt>
      <trkpt lat="48.62908" lon="-2.28719">
        <ele>113.17</ele>
        <time>2018-06-15T07:50:58Z</time>
      </trkpt>
      <trkpt lat="48.62909" lon="-2.28713">
        <ele>112.88</ele>
        <time>2018-06-15T07:51:01Z</time>
      </trkpt>
      <trkpt lat="48.62921" lon="-2.28692">
        <ele>111.6</ele>
        <time>2018-06-15T07:51:17Z</time>
      </trkpt>
      <trkpt lat="48.6293" lon="-2.28682">
        <ele>110.08</ele>
        <time>2018-06-15T07:51:33Z</time>
      </trkpt>
      <trkpt lat="48.62937" lon="-2.28673">
        <ele>110.17</ele>
        <time>2018-06-15T07:51:45Z</time>
      </trkpt>
      <trkpt lat="48.62951" lon="-2.28657">
        <ele>108.14</ele>
        <time>2018-06-15T07:51:58Z</time>
      </trkpt>
      <trkpt lat="48.62964" lon="-2.28637">
        <ele>105.74</ele>
        <time>2018-06-15T07:52:13Z</time>
      </trkpt>
      <trkpt lat="48.62973" lon="-2.28627">
        <ele>102.49</ele>
        <time>2018-06-15T07:52:25Z</time>
      </trkpt>
      <trkpt lat="48.62982" lon="-2.28619">
        <ele>99.26</ele>
        <time>2018-06-15T07:52:36Z</time>
      </trkpt>
      <trkpt lat="48.62993" lon="-2.28611">
        <ele>98.05</ele>
        <time>2018-06-15T07:52:52Z</time>
      </trkpt>
      <trkpt lat="48.62997" lon="-2.28606">
        <ele>97.36</ele>
        <time>2018-06-15T07:53:15Z</time>
      </trkpt>
      <trkpt lat="48.63003" lon="-2.28605">
        <ele>94.35</ele>
        <time>2018-06-15T07:53:34Z</time>
      </trkpt>
      <trkpt lat="48.63004" lon="-2.28608">
        <ele>93.53</ele>
        <time>2018-06-15T07:53:36Z</time>
      </trkpt>
      <trkpt lat="48.63012" lon="-2.2861">
        <ele>93.17</ele>
        <time>2018-06-15T07:53:43Z</time>
      </trkpt>
      <trkpt lat="48.63029" lon="-2.28609">
        <ele>94.32</ele>
        <time>2018-06-15T07:53:58Z</time>
      </trkpt>
      <trkpt lat="48.63041" lon="-2.28614">
        <ele>91.79</ele>
        <time>2018-06-15T07:54:15Z</time>
      </trkpt>
      <trkpt lat="48.63057" lon="-2.28621">
        <ele>89.14</ele>
        <time>2018-06-15T07:54:34Z</time>
      </trkpt>
      <trkpt lat="48.63058" lon="-2.2862">
        <ele>88.82</ele>
        <time>2018-06-15T07:54:37Z</time>
      </trkpt>
      <trkpt lat="48.63063" lon="-2.28616">
        <ele>89</ele>
        <time>2018-06-15T07:54:41Z</time>
      </trkpt>
      <trkpt lat="48.63078" lon="-2.28599">
        <ele>86.66</ele>
        <time>2018-06-15T07:54:57Z</time>
      </trkpt>
      <trkpt lat="48.63088" lon="-2.28593">
        <ele>84.36</ele>
        <time>2018-06-15T07:55:10Z</time>
      </trkpt>
      <trkpt lat="48.63089" lon="-2.286">
        <ele>82.5</ele>
        <time>2018-06-15T07:55:29Z</time>
      </trkpt>
      <trkpt lat="48.63089" lon="-2.28606">
        <ele>80.07</ele>
        <time>2018-06-15T07:55:50Z</time>
      </trkpt>
      <trkpt lat="48.63089" lon="-2.28607">
        <ele>79.46</ele>
        <time>2018-06-15T07:56:10Z</time>
      </trkpt>
      <trkpt lat="48.63087" lon="-2.28607">
        <ele>78.56</ele>
        <time>2018-06-15T07:56:35Z</time>
      </trkpt>
      <trkpt lat="48.63088" lon="-2.28608">
        <ele>77.01</ele>
        <time>2018-06-15T07:57:01Z</time>
      </trkpt>
      <trkpt lat="48.63088" lon="-2.2861">
        <ele>75.79</ele>
        <time>2018-06-15T07:57:32Z</time>
      </trkpt>
      <trkpt lat="48.63089" lon="-2.28615">
        <ele>75.78</ele>
        <time>2018-06-15T07:57:58Z</time>
      </trkpt>
      <trkpt lat="48.63086" lon="-2.28609">
        <ele>74.19</ele>
        <time>2018-06-15T07:58:21Z</time>
      </trkpt>
      <trkpt lat="48.63087" lon="-2.28608">
        <ele>73.47</ele>
        <time>2018-06-15T07:58:45Z</time>
      </trkpt>
      <trkpt lat="48.63087" lon="-2.28608">
        <ele>72.52</ele>
        <time>2018-06-15T07:59:11Z</time>
      </trkpt>
      <trkpt lat="48.63087" lon="-2.28611">
        <ele>73.37</ele>
        <time>2018-06-15T07:59:16Z</time>
      </trkpt>
      <trkpt lat="48.63089" lon="-2.28615">
        <ele>73.65</ele>
        <time>2018-06-15T07:59:19Z</time>
      </trkpt>
      <trkpt lat="48.63093" lon="-2.28632">
        <ele>75.57</ele>
        <time>2018-06-15T07:59:38Z</time>
      </trkpt>
      <trkpt lat="48.63101" lon="-2.28645">
        <ele>78.43</ele>
        <time>2018-06-15T08:00:02Z</time>
      </trkpt>
      <trkpt lat="48.63105" lon="-2.28648">
        <ele>78.15</ele>
        <time>2018-06-15T08:00:06Z</time>
      </trkpt>
      <trkpt lat="48.6312" lon="-2.28644">
        <ele>78.24</ele>
        <time>2018-06-15T08:00:21Z</time>
      </trkpt>
      <trkpt lat="48.63139" lon="-2.28633">
        <ele>78.41</ele>
        <time>2018-06-15T08:00:40Z</time>
      </trkpt>
      <trkpt lat="48.63152" lon="-2.28627">
        <ele>78.73</ele>
        <time>2018-06-15T08:00:54Z</time>
      </trkpt>
      <trkpt lat="48.63171" lon="-2.28638">
        <ele>78.91</ele>
        <time>2018-06-15T08:01:12Z</time>
      </trkpt>
      <trkpt lat="48.63181" lon="-2.28644">
        <ele>80.45</ele>
        <time>2018-06-15T08:01:28Z</time>
      </trkpt>
      <trkpt lat="48.63183" lon="-2.28642">
        <ele>80.59</ele>
        <time>2018-06-15T08:01:30Z</time>
      </trkpt>
      <trkpt lat="48.63183" lon="-2.28634">
        <ele>80.57</ele>
        <time>2018-06-15T08:01:36Z</time>
      </trkpt>
      <trkpt lat="48.63183" lon="-2.28623">
        <ele>79.1</ele>
        <time>2018-06-15T08:01:43Z</time>
      </trkpt>
      <trkpt lat="48.63184" lon="-2.28605">
        <ele>79.73</ele>
        <time>2018-06-15T08:01:55Z</time>
      </trkpt>
      <trkpt lat="48.63187" lon="-2.2859">
        <ele>81.38</ele>
        <time>2018-06-15T08:02:09Z</time>
      </trkpt>
      <trkpt lat="48.63186" lon="-2.2857">
        <ele>82.09</ele>
        <time>2018-06-15T08:02:26Z</time>
      </trkpt>
      <trkpt lat="48.63189" lon="-2.2854">
        <ele>82.15</ele>
        <time>2018-06-15T08:02:46Z</time>
      </trkpt>
      <trkpt lat="48.63195" lon="-2.28512">
        <ele>83.11</ele>
        <time>2018-06-15T08:03:04Z</time>
      </trkpt>
      <trkpt lat="48.63197" lon="-2.28489">
        <ele>85.19</ele>
        <time>2018-06-15T08:03:20Z</time>
      </trkpt>
      <trkpt lat="48.63199" lon="-2.28477">
        <ele>86.16</ele>
        <time>2018-06-15T08:03:29Z</time>
      </trkpt>
      <trkpt lat="48.63201" lon="-2.28474">
        <ele>85.73</ele>
        <time>2018-06-15T08:03:31Z</time>
      </trkpt>
      <trkpt lat="48.63202" lon="-2.28472">
        <ele>86.13</ele>
        <time>2018-06-15T08:03:33Z</time>
      </trkpt>
      <trkpt lat="48.6321" lon="-2.2845">
        <ele>86.33</ele>
        <time>2018-06-15T08:03:49Z</time>
      </trkpt>
      <trkpt lat="48.63216" lon="-2.28444">
        <ele>84.71</ele>
        <time>2018-06-15T08:03:57Z</time>
      </trkpt>
      <trkpt lat="48.63227" lon="-2.28431">
        <ele>81.23</ele>
        <time>2018-06-15T08:04:12Z</time>
      </trkpt>
      <trkpt lat="48.63228" lon="-2.28428">
        <ele>81.14</ele>
        <time>2018-06-15T08:04:15Z</time>
      </trkpt>
      <trkpt lat="48.63229" lon="-2.28424">
        <ele>80.59</ele>
        <time>2018-06-15T08:04:18Z</time>
      </trkpt>
      <trkpt lat="48.63233" lon="-2.28403">
        <ele>78.15</ele>
        <time>2018-06-15T08:04:34Z</time>
      </trkpt>
      <trkpt lat="48.63239" lon="-2.28389">
        <ele>74.57</ele>
        <time>2018-06-15T08:04:46Z</time>
      </trkpt>
      <trkpt lat="48.63243" lon="-2.28364">
        <ele>72.59</ele>
        <time>2018-06-15T08:05:04Z</time>
      </trkpt>
      <trkpt lat="48.63245" lon="-2.28341">
        <ele>75.64</ele>
        <time>2018-06-15T08:05:20Z</time>
      </trkpt>
      <trkpt lat="48.6325" lon="-2.2833">
        <ele>77.74</ele>
        <time>2018-06-15T08:05:38Z</time>
      </trkpt>
      <trkpt lat="48.63259" lon="-2.28313">
        <ele>80.22</ele>
        <time>2018-06-15T08:05:58Z</time>
      </trkpt>
      <trkpt lat="48.63272" lon="-2.28293">
        <ele>82.12</ele>
        <time>2018-06-15T08:06:19Z</time>
      </trkpt>
      <trkpt lat="48.6329" lon="-2.28283">
        <ele>85.63</ele>
        <time>2018-06-15T08:06:42Z</time>
      </trkpt>
      <trkpt lat="48.63297" lon="-2.28268">
        <ele>84.52</ele>
        <time>2018-06-15T08:06:55Z</time>
      </trkpt>
      <trkpt lat="48.63311" lon="-2.28252">
        <ele>84.07</ele>
        <time>2018-06-15T08:07:13Z</time>
      </trkpt>
      <trkpt lat="48.63325" lon="-2.28239">
        <ele>82.63</ele>
        <time>2018-06-15T08:07:28Z</time>
      </trkpt>
      <trkpt lat="48.63339" lon="-2.28221">
        <ele>82.37</ele>
        <time>2018-06-15T08:07:46Z</time>
      </trkpt>
      <trkpt lat="48.63356" lon="-2.28198">
        <ele>80.79</ele>
        <time>2018-06-15T08:08:07Z</time>
      </trkpt>
      <trkpt lat="48.63359" lon="-2.28191">
        <ele>80.97</ele>
        <time>2018-06-15T08:08:11Z</time>
      </trkpt>
      <trkpt lat="48.63361" lon="-2.28179">
        <ele>81.11</ele>
        <time>2018-06-15T08:08:21Z</time>
      </trkpt>
      <trkpt lat="48.63363" lon="-2.28172">
        <ele>81.22</ele>
        <time>2018-06-15T08:08:30Z</time>
      </trkpt>
      <trkpt lat="48.63363" lon="-2.28166">
        <ele>81.24</ele>
        <time>2018-06-15T08:08:34Z</time>
      </trkpt>
      <trkpt lat="48.63366" lon="-2.28143">
        <ele>82.94</ele>
        <time>2018-06-15T08:08:51Z</time>
      </trkpt>
      <trkpt lat="48.6337" lon="-2.28126">
        <ele>84.86</ele>
        <time>2018-06-15T08:09:06Z</time>
      </trkpt>
      <trkpt lat="48.63379" lon="-2.28106">
        <ele>84.87</ele>
        <time>2018-06-15T08:09:20Z</time>
      </trkpt>
      <trkpt lat="48.63383" lon="-2.28095">
        <ele>85.94</ele>
        <time>2018-06-15T08:09:30Z</time>
      </trkpt>
      <trkpt lat="48.6339" lon="-2.28073">
        <ele>86.65</ele>
        <time>2018-06-15T08:09:47Z</time>
      </trkpt>
      <trkpt lat="48.63397" lon="-2.28057">
        <ele>87.69</ele>
        <time>2018-06-15T08:10:05Z</time>
      </trkpt>
      <trkpt lat="48.63402" lon="-2.28046">
        <ele>85.83</ele>
        <time>2018-06-15T08:10:22Z</time>
      </trkpt>
      <trkpt lat="48.63403" lon="-2.28038">
        <ele>83.97</ele>
        <time>2018-06-15T08:10:31Z</time>
      </trkpt>
      <trkpt lat="48.63403" lon="-2.28032">
        <ele>83.57</ele>
        <time>2018-06-15T08:10:35Z</time>
      </trkpt>
      <trkpt lat="48.63407" lon="-2.28004">
        <ele>82.22</ele>
        <time>2018-06-15T08:10:51Z</time>
      </trkpt>
      <trkpt lat="48.6342" lon="-2.2798">
        <ele>83.23</ele>
        <time>2018-06-15T08:11:08Z</time>
      </trkpt>
      <trkpt lat="48.63428" lon="-2.27959">
        <ele>81.47</ele>
        <time>2018-06-15T08:11:24Z</time>
      </trkpt>
      <trkpt lat="48.63432" lon="-2.27948">
        <ele>78.22</ele>
        <time>2018-06-15T08:11:39Z</time>
      </trkpt>
      <trkpt lat="48.63438" lon="-2.27926">
        <ele>76.21</ele>
        <time>2018-06-15T08:11:57Z</time>
      </trkpt>
      <trkpt lat="48.63443" lon="-2.27906">
        <ele>78.18</ele>
        <time>2018-06-15T08:12:10Z</time>
      </trkpt>
      <trkpt lat="48.6345" lon="-2.27887">
        <ele>79.91</ele>
        <time>2018-06-15T08:12:31Z</time>
      </trkpt>
      <trkpt lat="48.63455" lon="-2.27881">
        <ele>81.26</ele>
        <time>2018-06-15T08:12:47Z</time>
      </trkpt>
      <trkpt lat="48.63456" lon="-2.27879">
        <ele>80.51</ele>
        <time>2018-06-15T08:13:14Z</time>
      </trkpt>
      <trkpt lat="48.63456" lon="-2.27884">
        <ele>79.63</ele>
        <time>2018-06-15T08:13:34Z</time>
      </trkpt>
      <trkpt lat="48.63453" lon="-2.27882">
        <ele>79.46</ele>
        <time>2018-06-15T08:13:54Z</time>
      </trkpt>
      <trkpt lat="48.63454" lon="-2.27879">
        <ele>79.5</ele>
        <time>2018-06-15T08:14:14Z</time>
      </trkpt>
      <trkpt lat="48.63454" lon="-2.27877">
        <ele>78.49</ele>
        <time>2018-06-15T08:14:45Z</time>
      </trkpt>
      <trkpt lat="48.63455" lon="-2.27878">
        <ele>77.31</ele>
        <time>2018-06-15T08:15:18Z</time>
      </trkpt>
      <trkpt lat="48.63456" lon="-2.27876">
        <ele>76.84</ele>
        <time>2018-06-15T08:16:04Z</time>
      </trkpt>
      <trkpt lat="48.63458" lon="-2.27865">
        <ele>76.68</ele>
        <time>2018-06-15T08:16:14Z</time>
      </trkpt>
      <trkpt lat="48.63461" lon="-2.27858">
        <ele>76.37</ele>
        <time>2018-06-15T08:16:19Z</time>
      </trkpt>
      <trkpt lat="48.6347" lon="-2.27835">
        <ele>76.97</ele>
        <time>2018-06-15T08:16:38Z</time>
      </trkpt>
      <trkpt lat="48.63481" lon="-2.27807">
        <ele>74.78</ele>
        <time>2018-06-15T08:16:55Z</time>
      </trkpt>
      <trkpt lat="48.63488" lon="-2.2778">
        <ele>73.69</ele>
        <time>2018-06-15T08:17:10Z</time>
      </trkpt>
      <trkpt lat="48.63502" lon="-2.2775">
        <ele>72.82</ele>
        <time>2018-06-15T08:17:29Z</time>
      </trkpt>
      <trkpt lat="48.6352" lon="-2.27729">
        <ele>71.86</ele>
        <time>2018-06-15T08:17:47Z</time>
      </trkpt>
      <trkpt lat="48.6354" lon="-2.27698">
        <ele>69.25</ele>
        <time>2018-06-15T08:18:10Z</time>
      </trkpt>
      <trkpt lat="48.63558" lon="-2.27678">
        <ele>68.97</ele>
        <time>2018-06-15T08:18:30Z</time>
      </trkpt>
      <trkpt lat="48.63574" lon="-2.27663">
        <ele>69.77</ele>
        <time>2018-06-15T08:18:48Z</time>
      </trkpt>
      <trkpt lat="48.63585" lon="-2.27642">
        <ele>70.01</ele>
        <time>2018-06-15T08:19:04Z</time>
      </trkpt>
      <trkpt lat="48.63587" lon="-2.27636">
        <ele>69.93</ele>
        <time>2018-06-15T08:19:08Z</time>
      </trkpt>
      <trkpt lat="48.63595" lon="-2.27625">
        <ele>69.83</ele>
        <time>2018-06-15T08:19:19Z</time>
      </trkpt>
      <trkpt lat="48.63609" lon="-2.27643">
        <ele>66.78</ele>
        <time>2018-06-15T08:19:39Z</time>
      </trkpt>
      <trkpt lat="48.63626" lon="-2.27662">
        <ele>64.67</ele>
        <time>2018-06-15T08:19:58Z</time>
      </trkpt>
      <trkpt lat="48.63645" lon="-2.27674">
        <ele>62.87</ele>
        <time>2018-06-15T08:20:17Z</time>
      </trkpt>
      <trkpt lat="48.63651" lon="-2.27676">
        <ele>61.51</ele>
        <time>2018-06-15T08:20:33Z</time>
      </trkpt>
      <trkpt lat="48.63653" lon="-2.27674">
        <ele>60.26</ele>
        <time>2018-06-15T08:20:38Z</time>
      </trkpt>
      <trkpt lat="48.63657" lon="-2.27651">
        <ele>60.12</ele>
        <time>2018-06-15T08:20:50Z</time>
      </trkpt>
      <trkpt lat="48.63655" lon="-2.27638">
        <ele>60.61</ele>
        <time>2018-06-15T08:20:59Z</time>
      </trkpt>
      <trkpt lat="48.63652" lon="-2.27623">
        <ele>60.87</ele>
        <time>2018-06-15T08:21:09Z</time>
      </trkpt>
      <trkpt lat="48.63652" lon="-2.27618">
        <ele>61.8</ele>
        <time>2018-06-15T08:21:11Z</time>
      </trkpt>
      <trkpt lat="48.63654" lon="-2.27599">
        <ele>61.76</ele>
        <time>2018-06-15T08:21:26Z</time>
      </trkpt>
      <trkpt lat="48.63654" lon="-2.27589">
        <ele>61.76</ele>
        <time>2018-06-15T08:21:33Z</time>
      </trkpt>
      <trkpt lat="48.63654" lon="-2.27577">
        <ele>61.07</ele>
        <time>2018-06-15T08:21:41Z</time>
      </trkpt>
      <trkpt lat="48.6365" lon="-2.27556">
        <ele>59.42</ele>
        <time>2018-06-15T08:21:55Z</time>
      </trkpt>
      <trkpt lat="48.63648" lon="-2.27545">
        <ele>55.75</ele>
        <time>2018-06-15T08:22:08Z</time>
      </trkpt>
      <trkpt lat="48.63644" lon="-2.27523">
        <ele>53.24</ele>
        <time>2018-06-15T08:22:24Z</time>
      </trkpt>
      <trkpt lat="48.63642" lon="-2.27498">
        <ele>50.98</ele>
        <time>2018-06-15T08:22:36Z</time>
      </trkpt>
      <trkpt lat="48.63641" lon="-2.27486">
        <ele>50.41</ele>
        <time>2018-06-15T08:22:41Z</time>
      </trkpt>
      <trkpt lat="48.63642" lon="-2.27463">
        <ele>46.98</ele>
        <time>2018-06-15T08:22:53Z</time>
      </trkpt>
      <trkpt lat="48.63647" lon="-2.27452">
        <ele>44.9</ele>
        <time>2018-06-15T08:23:05Z</time>
      </trkpt>
      <trkpt lat="48.63649" lon="-2.27443">
        <ele>44.67</ele>
        <time>2018-06-15T08:23:15Z</time>
      </trkpt>
      <trkpt lat="48.63649" lon="-2.2744">
        <ele>43.9</ele>
        <time>2018-06-15T08:23:17Z</time>
      </trkpt>
      <trkpt lat="48.63652" lon="-2.27431">
        <ele>44.04</ele>
        <time>2018-06-15T08:23:23Z</time>
      </trkpt>
      <trkpt lat="48.63647" lon="-2.27414">
        <ele>40.64</ele>
        <time>2018-06-15T08:23:36Z</time>
      </trkpt>
      <trkpt lat="48.63645" lon="-2.27407">
        <ele>39.52</ele>
        <time>2018-06-15T08:23:41Z</time>
      </trkpt>
      <trkpt lat="48.63644" lon="-2.274">
        <ele>38.01</ele>
        <time>2018-06-15T08:23:45Z</time>
      </trkpt>
      <trkpt lat="48.63644" lon="-2.27395">
        <ele>37.61</ele>
        <time>2018-06-15T08:23:47Z</time>
      </trkpt>
      <trkpt lat="48.63639" lon="-2.27382">
        <ele>39.44</ele>
        <time>2018-06-15T08:23:58Z</time>
      </trkpt>
      <trkpt lat="48.63629" lon="-2.27365">
        <ele>42.57</ele>
        <time>2018-06-15T08:24:15Z</time>
      </trkpt>
      <trkpt lat="48.63632" lon="-2.27335">
        <ele>44.19</ele>
        <time>2018-06-15T08:24:34Z</time>
      </trkpt>
      <trkpt lat="48.63633" lon="-2.27328">
        <ele>43.18</ele>
        <time>2018-06-15T08:24:58Z</time>
      </trkpt>
      <trkpt lat="48.63634" lon="-2.27332">
        <ele>42.92</ele>
        <time>2018-06-15T08:25:06Z</time>
      </trkpt>
      <trkpt lat="48.63624" lon="-2.27337">
        <ele>42.68</ele>
        <time>2018-06-15T08:25:25Z</time>
      </trkpt>
      <trkpt lat="48.63623" lon="-2.27337">
        <ele>42.59</ele>
        <time>2018-06-15T08:26:00Z</time>
      </trkpt>
      <trkpt lat="48.63626" lon="-2.27336">
        <ele>41.48</ele>
        <time>2018-06-15T08:26:21Z</time>
      </trkpt>
      <trkpt lat="48.63629" lon="-2.27334">
        <ele>41.12</ele>
        <time>2018-06-15T08:26:48Z</time>
      </trkpt>
      <trkpt lat="48.6363" lon="-2.27334">
        <ele>41.08</ele>
        <time>2018-06-15T08:27:14Z</time>
      </trkpt>
      <trkpt lat="48.63629" lon="-2.27336">
        <ele>40.71</ele>
        <time>2018-06-15T08:27:39Z</time>
      </trkpt>
      <trkpt lat="48.6363" lon="-2.27336">
        <ele>40.05</ele>
        <time>2018-06-15T08:28:08Z</time>
      </trkpt>
      <trkpt lat="48.63626" lon="-2.2734">
        <ele>39.68</ele>
        <time>2018-06-15T08:28:35Z</time>
      </trkpt>
      <trkpt lat="48.63624" lon="-2.27339">
        <ele>39.72</ele>
        <time>2018-06-15T08:29:04Z</time>
      </trkpt>
      <trkpt lat="48.63624" lon="-2.2734">
        <ele>38.49</ele>
        <time>2018-06-15T08:29:37Z</time>
      </trkpt>
      <trkpt lat="48.63621" lon="-2.2734">
        <ele>38.06</ele>
        <time>2018-06-15T08:29:59Z</time>
      </trkpt>
      <trkpt lat="48.63622" lon="-2.27333">
        <ele>38.1</ele>
        <time>2018-06-15T08:30:26Z</time>
      </trkpt>
      <trkpt lat="48.63627" lon="-2.27333">
        <ele>38.15</ele>
        <time>2018-06-15T08:30:37Z</time>
      </trkpt>
      <trkpt lat="48.63634" lon="-2.27336">
        <ele>38.95</ele>
        <time>2018-06-15T08:30:57Z</time>
      </trkpt>
      <trkpt lat="48.63644" lon="-2.27332">
        <ele>42.47</ele>
        <time>2018-06-15T08:31:14Z</time>
      </trkpt>
      <trkpt lat="48.63654" lon="-2.27332">
        <ele>45.56</ele>
        <time>2018-06-15T08:31:29Z</time>
      </trkpt>
      <trkpt lat="48.6366" lon="-2.27332">
        <ele>47.32</ele>
        <time>2018-06-15T08:31:40Z</time>
      </trkpt>
      <trkpt lat="48.63674" lon="-2.27327">
        <ele>50.34</ele>
        <time>2018-06-15T08:32:00Z</time>
      </trkpt>
      <trkpt lat="48.63679" lon="-2.27321">
        <ele>50.88</ele>
        <time>2018-06-15T08:32:08Z</time>
      </trkpt>
      <trkpt lat="48.63691" lon="-2.27309">
        <ele>48.35</ele>
        <time>2018-06-15T08:32:26Z</time>
      </trkpt>
      <trkpt lat="48.63698" lon="-2.27302">
        <ele>45.05</ele>
        <time>2018-06-15T08:32:36Z</time>
      </trkpt>
      <trkpt lat="48.63708" lon="-2.27297">
        <ele>42.04</ele>
        <time>2018-06-15T08:32:50Z</time>
      </trkpt>
      <trkpt lat="48.63719" lon="-2.27284">
        <ele>38.92</ele>
        <time>2018-06-15T08:33:02Z</time>
      </trkpt>
      <trkpt lat="48.63732" lon="-2.27269">
        <ele>39.18</ele>
        <time>2018-06-15T08:33:15Z</time>
      </trkpt>
      <trkpt lat="48.63741" lon="-2.27256">
        <ele>40.58</ele>
        <time>2018-06-15T08:33:26Z</time>
      </trkpt>
      <trkpt lat="48.63747" lon="-2.27245">
        <ele>43.39</ele>
        <time>2018-06-15T08:33:36Z</time>
      </trkpt>
      <trkpt lat="48.63747" lon="-2.27242">
        <ele>44.66</ele>
        <time>2018-06-15T08:33:40Z</time>
      </trkpt>
      <trkpt lat="48.63756" lon="-2.27237">
        <ele>45.09</ele>
        <time>2018-06-15T08:33:55Z</time>
      </trkpt>
      <trkpt lat="48.63766" lon="-2.27231">
        <ele>46.44</ele>
        <time>2018-06-15T08:34:08Z</time>
      </trkpt>
      <trkpt lat="48.63779" lon="-2.27232">
        <ele>43.09</ele>
        <time>2018-06-15T08:34:23Z</time>
      </trkpt>
      <trkpt lat="48.63783" lon="-2.27233">
        <ele>42.3</ele>
        <time>2018-06-15T08:34:28Z</time>
      </trkpt>
      <trkpt lat="48.63789" lon="-2.27234">
        <ele>41.5</ele>
        <time>2018-06-15T08:34:33Z</time>
      </trkpt>
      <trkpt lat="48.63819" lon="-2.27233">
        <ele>38.66</ele>
        <time>2018-06-15T08:34:56Z</time>
      </trkpt>
      <trkpt lat="48.6383" lon="-2.27227">
        <ele>35.49</ele>
        <time>2018-06-15T08:35:12Z</time>
      </trkpt>
      <trkpt lat="48.63836" lon="-2.27217">
        <ele>33.07</ele>
        <time>2018-06-15T08:35:21Z</time>
      </trkpt>
      <trkpt lat="48.63839" lon="-2.27211">
        <ele>32.14</ele>
        <time>2018-06-15T08:35:25Z</time>
      </trkpt>
      <trkpt lat="48.63853" lon="-2.27189">
        <ele>29.79</ele>
        <time>2018-06-15T08:35:40Z</time>
      </trkpt>
      <trkpt lat="48.63858" lon="-2.27188">
        <ele>29.8</ele>
        <time>2018-06-15T08:35:45Z</time>
      </trkpt>
      <trkpt lat="48.63868" lon="-2.27178">
        <ele>32.44</ele>
        <time>2018-06-15T08:36:00Z</time>
      </trkpt>
      <trkpt lat="48.63874" lon="-2.27169">
        <ele>36.31</ele>
        <time>2018-06-15T08:36:15Z</time>
      </trkpt>
      <trkpt lat="48.63887" lon="-2.27155">
        <ele>38.17</ele>
        <time>2018-06-15T08:36:37Z</time>
      </trkpt>
      <trkpt lat="48.63893" lon="-2.27153">
        <ele>35.08</ele>
        <time>2018-06-15T08:36:53Z</time>
      </trkpt>
      <trkpt lat="48.63899" lon="-2.27152">
        <ele>31.41</ele>
        <time>2018-06-15T08:37:08Z</time>
      </trkpt>
      <trkpt lat="48.63902" lon="-2.27151">
        <ele>30.93</ele>
        <time>2018-06-15T08:37:11Z</time>
      </trkpt>
      <trkpt lat="48.63909" lon="-2.27147">
        <ele>32.34</ele>
        <time>2018-06-15T08:37:19Z</time>
      </trkpt>
      <trkpt lat="48.63921" lon="-2.27141">
        <ele>35.98</ele>
        <time>2018-06-15T08:37:35Z</time>
      </trkpt>
      <trkpt lat="48.63928" lon="-2.27153">
        <ele>38.11</ele>
        <time>2018-06-15T08:37:50Z</time>
      </trkpt>
      <trkpt lat="48.63944" lon="-2.27183">
        <ele>38.47</ele>
        <time>2018-06-15T08:38:13Z</time>
      </trkpt>
      <trkpt lat="48.63944" lon="-2.27185">
        <ele>38.88</ele>
        <time>2018-06-15T08:38:14Z</time>
      </trkpt>
      <trkpt lat="48.63953" lon="-2.27211">
        <ele>40.46</ele>
        <time>2018-06-15T08:38:30Z</time>
      </trkpt>
      <trkpt lat="48.63966" lon="-2.27225">
        <ele>43.38</ele>
        <time>2018-06-15T08:38:46Z</time>
      </trkpt>
      <trkpt lat="48.63966" lon="-2.27226">
        <ele>43.24</ele>
        <time>2018-06-15T08:38:47Z</time>
      </trkpt>
      <trkpt lat="48.63973" lon="-2.27241">
        <ele>46.73</ele>
        <time>2018-06-15T08:39:03Z</time>
      </trkpt>
      <trkpt lat="48.6398" lon="-2.27248">
        <ele>49.31</ele>
        <time>2018-06-15T08:39:21Z</time>
      </trkpt>
      <trkpt lat="48.63989" lon="-2.2726">
        <ele>52.46</ele>
        <time>2018-06-15T08:39:42Z</time>
      </trkpt>
      <trkpt lat="48.63995" lon="-2.27268">
        <ele>55.48</ele>
        <time>2018-06-15T08:39:57Z</time>
      </trkpt>
      <trkpt lat="48.64006" lon="-2.27281">
        <ele>57.51</ele>
        <time>2018-06-15T08:40:20Z</time>
      </trkpt>
      <trkpt lat="48.64012" lon="-2.27299">
        <ele>58.84</ele>
        <time>2018-06-15T08:40:37Z</time>
      </trkpt>
      <trkpt lat="48.64013" lon="-2.27293">
        <ele>59.14</ele>
        <time>2018-06-15T08:41:04Z</time>
      </trkpt>
      <trkpt lat="48.64013" lon="-2.27293">
        <ele>58.48</ele>
        <time>2018-06-15T08:41:34Z</time>
      </trkpt>
      <trkpt lat="48.64014" lon="-2.2729">
        <ele>58.38</ele>
        <time>2018-06-15T08:41:59Z</time>
      </trkpt>
      <trkpt lat="48.64014" lon="-2.27289">
        <ele>58.22</ele>
        <time>2018-06-15T08:42:29Z</time>
      </trkpt>
      <trkpt lat="48.64014" lon="-2.2729">
        <ele>57.61</ele>
        <time>2018-06-15T08:42:57Z</time>
      </trkpt>
      <trkpt lat="48.64015" lon="-2.2728">
        <ele>58.77</ele>
        <time>2018-06-15T08:43:12Z</time>
      </trkpt>
      <trkpt lat="48.64014" lon="-2.27284">
        <ele>57.62</ele>
        <time>2018-06-15T08:43:49Z</time>
      </trkpt>
      <trkpt lat="48.64015" lon="-2.27281">
        <ele>57.48</ele>
        <time>2018-06-15T08:44:09Z</time>
      </trkpt>
      <trkpt lat="48.64016" lon="-2.2728">
        <ele>57.33</ele>
        <time>2018-06-15T08:44:35Z</time>
      </trkpt>
      <trkpt lat="48.64016" lon="-2.27279">
        <ele>56.58</ele>
        <time>2018-06-15T08:44:58Z</time>
      </trkpt>
      <trkpt lat="48.64016" lon="-2.27278">
        <ele>56.46</ele>
        <time>2018-06-15T08:45:39Z</time>
      </trkpt>
      <trkpt lat="48.64016" lon="-2.27278">
        <ele>56.04</ele>
        <time>2018-06-15T08:46:01Z</time>
      </trkpt>
      <trkpt lat="48.64016" lon="-2.27271">
        <ele>56.14</ele>
        <time>2018-06-15T08:46:09Z</time>
      </trkpt>
      <trkpt lat="48.64027" lon="-2.27243">
        <ele>54.83</ele>
        <time>2018-06-15T08:46:29Z</time>
      </trkpt>
      <trkpt lat="48.64028" lon="-2.27229">
        <ele>55.19</ele>
        <time>2018-06-15T08:46:38Z</time>
      </trkpt>
      <trkpt lat="48.64039" lon="-2.27207">
        <ele>54.54</ele>
        <time>2018-06-15T08:46:56Z</time>
      </trkpt>
      <trkpt lat="48.64042" lon="-2.27202">
        <ele>54</ele>
        <time>2018-06-15T08:47:01Z</time>
      </trkpt>
      <trkpt lat="48.6405" lon="-2.27187">
        <ele>50.7</ele>
        <time>2018-06-15T08:47:14Z</time>
      </trkpt>
      <trkpt lat="48.64059" lon="-2.27172">
        <ele>48.15</ele>
        <time>2018-06-15T08:47:31Z</time>
      </trkpt>
      <trkpt lat="48.6407" lon="-2.27159">
        <ele>44.58</ele>
        <time>2018-06-15T08:47:46Z</time>
      </trkpt>
      <trkpt lat="48.64081" lon="-2.27146">
        <ele>42.24</ele>
        <time>2018-06-15T08:48:01Z</time>
      </trkpt>
      <trkpt lat="48.64098" lon="-2.27127">
        <ele>39.36</ele>
        <time>2018-06-15T08:48:19Z</time>
      </trkpt>
      <trkpt lat="48.64101" lon="-2.27118">
        <ele>38.87</ele>
        <time>2018-06-15T08:48:27Z</time>
      </trkpt>
      <trkpt lat="48.64096" lon="-2.271">
        <ele>38.73</ele>
        <time>2018-06-15T08:48:38Z</time>
      </trkpt>
      <trkpt lat="48.64083" lon="-2.27082">
        <ele>39.3</ele>
        <time>2018-06-15T08:48:54Z</time>
      </trkpt>
      <trkpt lat="48.64069" lon="-2.27072">
        <ele>41.14</ele>
        <time>2018-06-15T08:49:07Z</time>
      </trkpt>
      <trkpt lat="48.64053" lon="-2.27044">
        <ele>40.37</ele>
        <time>2018-06-15T08:49:26Z</time>
      </trkpt>
      <trkpt lat="48.64039" lon="-2.27021">
        <ele>40.34</ele>
        <time>2018-06-15T08:49:43Z</time>
      </trkpt>
      <trkpt lat="48.64039" lon="-2.27018">
        <ele>39.63</ele>
        <time>2018-06-15T08:49:45Z</time>
      </trkpt>
      <trkpt lat="48.64041" lon="-2.26993">
        <ele>38.64</ele>
        <time>2018-06-15T08:50:01Z</time>
      </trkpt>
      <trkpt lat="48.64046" lon="-2.26969">
        <ele>38.46</ele>
        <time>2018-06-15T08:50:16Z</time>
      </trkpt>
      <trkpt lat="48.64054" lon="-2.26942">
        <ele>36.69</ele>
        <time>2018-06-15T08:50:35Z</time>
      </trkpt>
      <trkpt lat="48.64064" lon="-2.26921">
        <ele>33.58</ele>
        <time>2018-06-15T08:50:52Z</time>
      </trkpt>
      <trkpt lat="48.64072" lon="-2.26894">
        <ele>30.24</ele>
        <time>2018-06-15T08:51:12Z</time>
      </trkpt>
      <trkpt lat="48.64071" lon="-2.26887">
        <ele>27.69</ele>
        <time>2018-06-15T08:51:26Z</time>
      </trkpt>
      <trkpt lat="48.64064" lon="-2.26883">
        <ele>27.33</ele>
        <time>2018-06-15T08:51:32Z</time>
      </trkpt>
      <trkpt lat="48.64059" lon="-2.26871">
        <ele>25.93</ele>
        <time>2018-06-15T08:51:50Z</time>
      </trkpt>
      <trkpt lat="48.64062" lon="-2.26873">
        <ele>25.99</ele>
        <time>2018-06-15T08:52:13Z</time>
      </trkpt>
      <trkpt lat="48.64063" lon="-2.26873">
        <ele>25.7</ele>
        <time>2018-06-15T08:52:54Z</time>
      </trkpt>
      <trkpt lat="48.64063" lon="-2.26874">
        <ele>25.72</ele>
        <time>2018-06-15T08:53:12Z</time>
      </trkpt>
      <trkpt lat="48.64063" lon="-2.26874">
        <ele>25.4</ele>
        <time>2018-06-15T08:53:36Z</time>
      </trkpt>
      <trkpt lat="48.64063" lon="-2.26874">
        <ele>25.34</ele>
        <time>2018-06-15T08:53:57Z</time>
      </trkpt>
      <trkpt lat="48.64063" lon="-2.26874">
        <ele>24.53</ele>
        <time>2018-06-15T08:54:31Z</time>
      </trkpt>
      <trkpt lat="48.64063" lon="-2.26873">
        <ele>24.44</ele>
        <time>2018-06-15T08:55:08Z</time>
      </trkpt>
      <trkpt lat="48.64063" lon="-2.26874">
        <ele>24.72</ele>
        <time>2018-06-15T08:55:33Z</time>
      </trkpt>
      <trkpt lat="48.64063" lon="-2.26875">
        <ele>24.64</ele>
        <time>2018-06-15T08:56:00Z</time>
      </trkpt>
      <trkpt lat="48.64063" lon="-2.26874">
        <ele>24.73</ele>
        <time>2018-06-15T08:56:24Z</time>
      </trkpt>
      <trkpt lat="48.64063" lon="-2.26874">
        <ele>24.69</ele>
        <time>2018-06-15T08:56:49Z</time>
      </trkpt>
      <trkpt lat="48.64064" lon="-2.26873">
        <ele>24.5</ele>
        <time>2018-06-15T08:57:13Z</time>
      </trkpt>
      <trkpt lat="48.64064" lon="-2.26873">
        <ele>24.05</ele>
        <time>2018-06-15T08:57:42Z</time>
      </trkpt>
      <trkpt lat="48.64062" lon="-2.26876">
        <ele>24</ele>
        <time>2018-06-15T08:58:05Z</time>
      </trkpt>
      <trkpt lat="48.64061" lon="-2.26878">
        <ele>23.76</ele>
        <time>2018-06-15T08:58:30Z</time>
      </trkpt>
      <trkpt lat="48.64052" lon="-2.26887">
        <ele>25.42</ele>
        <time>2018-06-15T08:58:50Z</time>
      </trkpt>
      <trkpt lat="48.64042" lon="-2.26896">
        <ele>28.61</ele>
        <time>2018-06-15T08:59:10Z</time>
      </trkpt>
      <trkpt lat="48.64032" lon="-2.26907">
        <ele>32.66</ele>
        <time>2018-06-15T08:59:31Z</time>
      </trkpt>
      <trkpt lat="48.64025" lon="-2.26903">
        <ele>33.81</ele>
        <time>2018-06-15T08:59:44Z</time>
      </trkpt>
      <trkpt lat="48.64025" lon="-2.26885">
        <ele>34.73</ele>
        <time>2018-06-15T08:59:55Z</time>
      </trkpt>
      <trkpt lat="48.64025" lon="-2.26863">
        <ele>35.3</ele>
        <time>2018-06-15T09:00:11Z</time>
      </trkpt>
      <trkpt lat="48.64023" lon="-2.26841">
        <ele>38.47</ele>
        <time>2018-06-15T09:00:30Z</time>
      </trkpt>
      <trkpt lat="48.64022" lon="-2.26816">
        <ele>40.02</ele>
        <time>2018-06-15T09:00:48Z</time>
      </trkpt>
      <trkpt lat="48.64022" lon="-2.26789">
        <ele>42.13</ele>
        <time>2018-06-15T09:01:07Z</time>
      </trkpt>
      <trkpt lat="48.64022" lon="-2.26767">
        <ele>44.62</ele>
        <time>2018-06-15T09:01:25Z</time>
      </trkpt>
      <trkpt lat="48.64027" lon="-2.26753">
        <ele>43.38</ele>
        <time>2018-06-15T09:01:34Z</time>
      </trkpt>
      <trkpt lat="48.64028" lon="-2.26748">
        <ele>43.23</ele>
        <time>2018-06-15T09:01:37Z</time>
      </trkpt>
      <trkpt lat="48.64031" lon="-2.26739">
        <ele>42.29</ele>
        <time>2018-06-15T09:01:43Z</time>
      </trkpt>
      <trkpt lat="48.64033" lon="-2.26736">
        <ele>42.04</ele>
        <time>2018-06-15T09:01:46Z</time>
      </trkpt>
      <trkpt lat="48.64035" lon="-2.2673">
        <ele>41.64</ele>
        <time>2018-06-15T09:01:50Z</time>
      </trkpt>
      <trkpt lat="48.64042" lon="-2.26705">
        <ele>40.8</ele>
        <time>2018-06-15T09:02:05Z</time>
      </trkpt>
      <trkpt lat="48.64043" lon="-2.26684">
        <ele>40.44</ele>
        <time>2018-06-15T09:02:18Z</time>
      </trkpt>
      <trkpt lat="48.64051" lon="-2.26658">
        <ele>39.18</ele>
        <time>2018-06-15T09:02:33Z</time>
      </trkpt>
      <trkpt lat="48.64059" lon="-2.26633">
        <ele>38.59</ele>
        <time>2018-06-15T09:02:48Z</time>
      </trkpt>
      <trkpt lat="48.64067" lon="-2.2661">
        <ele>36.97</ele>
        <time>2018-06-15T09:03:03Z</time>
      </trkpt>
      <trkpt lat="48.64073" lon="-2.26586">
        <ele>38.56</ele>
        <time>2018-06-15T09:03:18Z</time>
      </trkpt>
      <trkpt lat="48.64081" lon="-2.26562">
        <ele>41.45</ele>
        <time>2018-06-15T09:03:40Z</time>
      </trkpt>
      <trkpt lat="48.64083" lon="-2.26556">
        <ele>42.11</ele>
        <time>2018-06-15T09:03:45Z</time>
      </trkpt>
      <trkpt lat="48.64085" lon="-2.26552">
        <ele>42.1</ele>
        <time>2018-06-15T09:03:48Z</time>
      </trkpt>
      <trkpt lat="48.64093" lon="-2.26534">
        <ele>42.22</ele>
        <time>2018-06-15T09:04:00Z</time>
      </trkpt>
      <trkpt lat="48.64095" lon="-2.26528">
        <ele>42.78</ele>
        <time>2018-06-15T09:04:04Z</time>
      </trkpt>
      <trkpt lat="48.64107" lon="-2.26509">
        <ele>41.36</ele>
        <time>2018-06-15T09:04:21Z</time>
      </trkpt>
      <trkpt lat="48.6412" lon="-2.26491">
        <ele>40.39</ele>
        <time>2018-06-15T09:04:37Z</time>
      </trkpt>
      <trkpt lat="48.64135" lon="-2.26473">
        <ele>39.81</ele>
        <time>2018-06-15T09:04:55Z</time>
      </trkpt>
      <trkpt lat="48.64147" lon="-2.26457">
        <ele>38.56</ele>
        <time>2018-06-15T09:05:11Z</time>
      </trkpt>
      <trkpt lat="48.64152" lon="-2.26452">
        <ele>37.44</ele>
        <time>2018-06-15T09:05:16Z</time>
      </trkpt>
      <trkpt lat="48.64176" lon="-2.26447">
        <ele>36.85</ele>
        <time>2018-06-15T09:05:36Z</time>
      </trkpt>
      <trkpt lat="48.6419" lon="-2.26447">
        <ele>36.5</ele>
        <time>2018-06-15T09:05:51Z</time>
      </trkpt>
      <trkpt lat="48.64195" lon="-2.26447">
        <ele>36.54</ele>
        <time>2018-06-15T09:06:14Z</time>
      </trkpt>
      <trkpt lat="48.642" lon="-2.26446">
        <ele>36.09</ele>
        <time>2018-06-15T09:06:35Z</time>
      </trkpt>
      <trkpt lat="48.64206" lon="-2.26445">
        <ele>35.33</ele>
        <time>2018-06-15T09:06:47Z</time>
      </trkpt>
      <trkpt lat="48.64213" lon="-2.26442">
        <ele>34.45</ele>
        <time>2018-06-15T09:06:53Z</time>
      </trkpt>
      <trkpt lat="48.6423" lon="-2.26434">
        <ele>33.29</ele>
        <time>2018-06-15T09:07:07Z</time>
      </trkpt>
      <trkpt lat="48.64244" lon="-2.26419">
        <ele>33.41</ele>
        <time>2018-06-15T09:07:22Z</time>
      </trkpt>
      <trkpt lat="48.64257" lon="-2.26402">
        <ele>33.41</ele>
        <time>2018-06-15T09:07:37Z</time>
      </trkpt>
      <trkpt lat="48.64266" lon="-2.26385">
        <ele>33.87</ele>
        <time>2018-06-15T09:07:50Z</time>
      </trkpt>
      <trkpt lat="48.6428" lon="-2.26365">
        <ele>33.99</ele>
        <time>2018-06-15T09:08:06Z</time>
      </trkpt>
      <trkpt lat="48.64289" lon="-2.26357">
        <ele>33.47</ele>
        <time>2018-06-15T09:08:15Z</time>
      </trkpt>
      <trkpt lat="48.64298" lon="-2.26349">
        <ele>32.25</ele>
        <time>2018-06-15T09:08:29Z</time>
      </trkpt>
      <trkpt lat="48.64317" lon="-2.26332">
        <ele>29.48</ele>
        <time>2018-06-15T09:08:48Z</time>
      </trkpt>
      <trkpt lat="48.64333" lon="-2.2631">
        <ele>29.27</ele>
        <time>2018-06-15T09:09:05Z</time>
      </trkpt>
      <trkpt lat="48.64349" lon="-2.26283">
        <ele>29.76</ele>
        <time>2018-06-15T09:09:23Z</time>
      </trkpt>
      <trkpt lat="48.64353" lon="-2.26275">
        <ele>30.47</ele>
        <time>2018-06-15T09:09:29Z</time>
      </trkpt>
      <trkpt lat="48.64359" lon="-2.26265">
        <ele>31.38</ele>
        <time>2018-06-15T09:09:46Z</time>
      </trkpt>
      <trkpt lat="48.64365" lon="-2.26251">
        <ele>33.66</ele>
        <time>2018-06-15T09:10:02Z</time>
      </trkpt>
      <trkpt lat="48.64371" lon="-2.26245">
        <ele>34.71</ele>
        <time>2018-06-15T09:10:15Z</time>
      </trkpt>
      <trkpt lat="48.64373" lon="-2.2624">
        <ele>34.61</ele>
        <time>2018-06-15T09:10:47Z</time>
      </trkpt>
      <trkpt lat="48.64376" lon="-2.26231">
        <ele>33.7</ele>
        <time>2018-06-15T09:10:55Z</time>
      </trkpt>
      <trkpt lat="48.64376" lon="-2.2622">
        <ele>32.69</ele>
        <time>2018-06-15T09:11:03Z</time>
      </trkpt>
      <trkpt lat="48.64376" lon="-2.26217">
        <ele>33.56</ele>
        <time>2018-06-15T09:11:05Z</time>
      </trkpt>
      <trkpt lat="48.64373" lon="-2.26203">
        <ele>32.73</ele>
        <time>2018-06-15T09:11:19Z</time>
      </trkpt>
      <trkpt lat="48.64367" lon="-2.26192">
        <ele>32.65</ele>
        <time>2018-06-15T09:11:34Z</time>
      </trkpt>
      <trkpt lat="48.64366" lon="-2.26191">
        <ele>32.97</ele>
        <time>2018-06-15T09:11:36Z</time>
      </trkpt>
      <trkpt lat="48.64351" lon="-2.26179">
        <ele>33.81</ele>
        <time>2018-06-15T09:11:53Z</time>
      </trkpt>
      <trkpt lat="48.6434" lon="-2.26174">
        <ele>34.03</ele>
        <time>2018-06-15T09:12:06Z</time>
      </trkpt>
      <trkpt lat="48.64337" lon="-2.26173">
        <ele>34.36</ele>
        <time>2018-06-15T09:12:09Z</time>
      </trkpt>
      <trkpt lat="48.64317" lon="-2.26159">
        <ele>34.16</ele>
        <time>2018-06-15T09:12:29Z</time>
      </trkpt>
      <trkpt lat="48.64304" lon="-2.26154">
        <ele>34.29</ele>
        <time>2018-06-15T09:12:45Z</time>
      </trkpt>
      <trkpt lat="48.64285" lon="-2.2615">
        <ele>33.82</ele>
        <time>2018-06-15T09:13:07Z</time>
      </trkpt>
      <trkpt lat="48.64269" lon="-2.26152">
        <ele>33.27</ele>
        <time>2018-06-15T09:13:25Z</time>
      </trkpt>
      <trkpt lat="48.64252" lon="-2.26143">
        <ele>33</ele>
        <time>2018-06-15T09:13:40Z</time>
      </trkpt>
      <trkpt lat="48.64248" lon="-2.26141">
        <ele>32.87</ele>
        <time>2018-06-15T09:13:42Z</time>
      </trkpt>
      <trkpt lat="48.64246" lon="-2.2614">
        <ele>32.81</ele>
        <time>2018-06-15T09:13:44Z</time>
      </trkpt>
      <trkpt lat="48.64237" lon="-2.26134">
        <ele>32.91</ele>
        <time>2018-06-15T09:13:51Z</time>
      </trkpt>
      <trkpt lat="48.64212" lon="-2.26119">
        <ele>31.75</ele>
        <time>2018-06-15T09:14:10Z</time>
      </trkpt>
      <trkpt lat="48.64187" lon="-2.261">
        <ele>31.14</ele>
        <time>2018-06-15T09:14:28Z</time>
      </trkpt>
      <trkpt lat="48.6417" lon="-2.26084">
        <ele>30.59</ele>
        <time>2018-06-15T09:14:46Z</time>
      </trkpt>
      <trkpt lat="48.64157" lon="-2.26076">
        <ele>27.88</ele>
        <time>2018-06-15T09:15:02Z</time>
      </trkpt>
      <trkpt lat="48.64143" lon="-2.2606">
        <ele>25.45</ele>
        <time>2018-06-15T09:15:22Z</time>
      </trkpt>
      <trkpt lat="48.64144" lon="-2.26043">
        <ele>24.9</ele>
        <time>2018-06-15T09:15:36Z</time>
      </trkpt>
      <trkpt lat="48.64144" lon="-2.26033">
        <ele>25.28</ele>
        <time>2018-06-15T09:15:42Z</time>
      </trkpt>
      <trkpt lat="48.64151" lon="-2.26019">
        <ele>24.71</ele>
        <time>2018-06-15T09:15:52Z</time>
      </trkpt>
      <trkpt lat="48.64155" lon="-2.26011">
        <ele>24.52</ele>
        <time>2018-06-15T09:15:57Z</time>
      </trkpt>
      <trkpt lat="48.6417" lon="-2.25989">
        <ele>24.81</ele>
        <time>2018-06-15T09:16:12Z</time>
      </trkpt>
      <trkpt lat="48.64171" lon="-2.25987">
        <ele>24.63</ele>
        <time>2018-06-15T09:16:14Z</time>
      </trkpt>
      <trkpt lat="48.64187" lon="-2.25968">
        <ele>23.68</ele>
        <time>2018-06-15T09:16:31Z</time>
      </trkpt>
      <trkpt lat="48.64188" lon="-2.25968">
        <ele>23.89</ele>
        <time>2018-06-15T09:16:32Z</time>
      </trkpt>
      <trkpt lat="48.64203" lon="-2.2595">
        <ele>22.5</ele>
        <time>2018-06-15T09:16:50Z</time>
      </trkpt>
      <trkpt lat="48.64214" lon="-2.25936">
        <ele>20.84</ele>
        <time>2018-06-15T09:17:04Z</time>
      </trkpt>
      <trkpt lat="48.64226" lon="-2.2592">
        <ele>19.61</ele>
        <time>2018-06-15T09:17:16Z</time>
      </trkpt>
      <trkpt lat="48.64238" lon="-2.25897">
        <ele>17.32</ele>
        <time>2018-06-15T09:17:35Z</time>
      </trkpt>
      <trkpt lat="48.64241" lon="-2.25884">
        <ele>16.27</ele>
        <time>2018-06-15T09:17:43Z</time>
      </trkpt>
      <trkpt lat="48.64253" lon="-2.25859">
        <ele>14</ele>
        <time>2018-06-15T09:18:00Z</time>
      </trkpt>
      <trkpt lat="48.64254" lon="-2.25858">
        <ele>13.84</ele>
        <time>2018-06-15T09:18:01Z</time>
      </trkpt>
      <trkpt lat="48.64264" lon="-2.25833">
        <ele>12.08</ele>
        <time>2018-06-15T09:18:18Z</time>
      </trkpt>
      <trkpt lat="48.64277" lon="-2.25811">
        <ele>9.56</ele>
        <time>2018-06-15T09:18:37Z</time>
      </trkpt>
      <trkpt lat="48.64292" lon="-2.25787">
        <ele>7.57</ele>
        <time>2018-06-15T09:18:54Z</time>
      </trkpt>
      <trkpt lat="48.64309" lon="-2.25761">
        <ele>6.62</ele>
        <time>2018-06-15T09:19:12Z</time>
      </trkpt>
      <trkpt lat="48.64306" lon="-2.2573">
        <ele>7.04</ele>
        <time>2018-06-15T09:19:31Z</time>
      </trkpt>
      <trkpt lat="48.64295" lon="-2.25724">
        <ele>8.63</ele>
        <time>2018-06-15T09:19:48Z</time>
      </trkpt>
      <trkpt lat="48.64299" lon="-2.25733">
        <ele>8.06</ele>
        <time>2018-06-15T09:20:06Z</time>
      </trkpt>
      <trkpt lat="48.64297" lon="-2.25735">
        <ele>8.44</ele>
        <time>2018-06-15T09:20:26Z</time>
      </trkpt>
      <trkpt lat="48.64298" lon="-2.25727">
        <ele>8.06</ele>
        <time>2018-06-15T09:20:31Z</time>
      </trkpt>
      <trkpt lat="48.643" lon="-2.25722">
        <ele>8.38</ele>
        <time>2018-06-15T09:20:42Z</time>
      </trkpt>
      <trkpt lat="48.64294" lon="-2.25725">
        <ele>8.5</ele>
        <time>2018-06-15T09:21:01Z</time>
      </trkpt>
      <trkpt lat="48.64292" lon="-2.25718">
        <ele>8.87</ele>
        <time>2018-06-15T09:21:22Z</time>
      </trkpt>
      <trkpt lat="48.64287" lon="-2.25717">
        <ele>9.26</ele>
        <time>2018-06-15T09:21:46Z</time>
      </trkpt>
      <trkpt lat="48.64288" lon="-2.25721">
        <ele>9.15</ele>
        <time>2018-06-15T09:22:07Z</time>
      </trkpt>
      <trkpt lat="48.64289" lon="-2.25723">
        <ele>9.22</ele>
        <time>2018-06-15T09:22:39Z</time>
      </trkpt>
      <trkpt lat="48.64289" lon="-2.25722">
        <ele>8.98</ele>
        <time>2018-06-15T09:23:18Z</time>
      </trkpt>
      <trkpt lat="48.6428" lon="-2.25711">
        <ele>10.14</ele>
        <time>2018-06-15T09:23:41Z</time>
      </trkpt>
      <trkpt lat="48.64265" lon="-2.25695">
        <ele>11.88</ele>
        <time>2018-06-15T09:23:57Z</time>
      </trkpt>
      <trkpt lat="48.64255" lon="-2.25682">
        <ele>14.24</ele>
        <time>2018-06-15T09:24:10Z</time>
      </trkpt>
      <trkpt lat="48.64241" lon="-2.25663">
        <ele>17.29</ele>
        <time>2018-06-15T09:24:26Z</time>
      </trkpt>
      <trkpt lat="48.64231" lon="-2.25647">
        <ele>18.67</ele>
        <time>2018-06-15T09:24:40Z</time>
      </trkpt>
      <trkpt lat="48.64217" lon="-2.25628">
        <ele>21.06</ele>
        <time>2018-06-15T09:24:55Z</time>
      </trkpt>
      <trkpt lat="48.64203" lon="-2.25611">
        <ele>22.77</ele>
        <time>2018-06-15T09:25:10Z</time>
      </trkpt>
      <trkpt lat="48.6419" lon="-2.25594">
        <ele>25.61</ele>
        <time>2018-06-15T09:25:25Z</time>
      </trkpt>
      <trkpt lat="48.64176" lon="-2.25576">
        <ele>27.05</ele>
        <time>2018-06-15T09:25:41Z</time>
      </trkpt>
      <trkpt lat="48.64163" lon="-2.2556">
        <ele>28.82</ele>
        <time>2018-06-15T09:25:54Z</time>
      </trkpt>
      <trkpt lat="48.64157" lon="-2.25551">
        <ele>30.14</ele>
        <time>2018-06-15T09:26:01Z</time>
      </trkpt>
      <trkpt lat="48.64142" lon="-2.25528">
        <ele>32.72</ele>
        <time>2018-06-15T09:26:18Z</time>
      </trkpt>
      <trkpt lat="48.64135" lon="-2.25518">
        <ele>33.14</ele>
        <time>2018-06-15T09:26:27Z</time>
      </trkpt>
      <trkpt lat="48.64136" lon="-2.25509">
        <ele>34.02</ele>
        <time>2018-06-15T09:26:44Z</time>
      </trkpt>
      <trkpt lat="48.64144" lon="-2.25507">
        <ele>34.93</ele>
        <time>2018-06-15T09:27:05Z</time>
      </trkpt>
      <trkpt lat="48.64146" lon="-2.25505">
        <ele>34.44</ele>
        <time>2018-06-15T09:27:26Z</time>
      </trkpt>
      <trkpt lat="48.6416" lon="-2.25501">
        <ele>34.53</ele>
        <time>2018-06-15T09:27:42Z</time>
      </trkpt>
      <trkpt lat="48.64173" lon="-2.25498">
        <ele>34.1</ele>
        <time>2018-06-15T09:27:57Z</time>
      </trkpt>
      <trkpt lat="48.64178" lon="-2.25498">
        <ele>33.26</ele>
        <time>2018-06-15T09:28:01Z</time>
      </trkpt>
      <trkpt lat="48.64203" lon="-2.25498">
        <ele>31.68</ele>
        <time>2018-06-15T09:28:21Z</time>
      </trkpt>
      <trkpt lat="48.64218" lon="-2.25498">
        <ele>31.31</ele>
        <time>2018-06-15T09:28:35Z</time>
      </trkpt>
      <trkpt lat="48.64222" lon="-2.25499">
        <ele>30.58</ele>
        <time>2018-06-15T09:28:38Z</time>
      </trkpt>
      <trkpt lat="48.64244" lon="-2.25502">
        <ele>30.66</ele>
        <time>2018-06-15T09:28:57Z</time>
      </trkpt>
      <trkpt lat="48.64263" lon="-2.25506">
        <ele>30.08</ele>
        <time>2018-06-15T09:29:13Z</time>
      </trkpt>
      <trkpt lat="48.6428" lon="-2.25509">
        <ele>29.38</ele>
        <time>2018-06-15T09:29:29Z</time>
      </trkpt>
      <trkpt lat="48.64298" lon="-2.25513">
        <ele>28.68</ele>
        <time>2018-06-15T09:29:47Z</time>
      </trkpt>
      <trkpt lat="48.64314" lon="-2.25516">
        <ele>28.09</ele>
        <time>2018-06-15T09:30:04Z</time>
      </trkpt>
      <trkpt lat="48.64333" lon="-2.25526">
        <ele>26.98</ele>
        <time>2018-06-15T09:30:26Z</time>
      </trkpt>
      <trkpt lat="48.64357" lon="-2.25537">
        <ele>24.34</ele>
        <time>2018-06-15T09:30:47Z</time>
      </trkpt>
      <trkpt lat="48.64366" lon="-2.25543">
        <ele>23.55</ele>
        <time>2018-06-15T09:30:54Z</time>
      </trkpt>
      <trkpt lat="48.64371" lon="-2.25537">
        <ele>22.82</ele>
        <time>2018-06-15T09:31:00Z</time>
      </trkpt>
      <trkpt lat="48.64378" lon="-2.2552">
        <ele>22.71</ele>
        <time>2018-06-15T09:31:11Z</time>
      </trkpt>
      <trkpt lat="48.64398" lon="-2.25505">
        <ele>22.77</ele>
        <time>2018-06-15T09:31:28Z</time>
      </trkpt>
      <trkpt lat="48.64417" lon="-2.25487">
        <ele>23.61</ele>
        <time>2018-06-15T09:31:47Z</time>
      </trkpt>
      <trkpt lat="48.64421" lon="-2.25481">
        <ele>23.72</ele>
        <time>2018-06-15T09:31:53Z</time>
      </trkpt>
      <trkpt lat="48.64423" lon="-2.25464">
        <ele>25.7</ele>
        <time>2018-06-15T09:32:08Z</time>
      </trkpt>
      <trkpt lat="48.64429" lon="-2.25467">
        <ele>24.61</ele>
        <time>2018-06-15T09:32:24Z</time>
      </trkpt>
      <trkpt lat="48.64423" lon="-2.25463">
        <ele>25.85</ele>
        <time>2018-06-15T09:32:43Z</time>
      </trkpt>
      <trkpt lat="48.64418" lon="-2.25461">
        <ele>25.94</ele>
        <time>2018-06-15T09:33:00Z</time>
      </trkpt>
      <trkpt lat="48.64417" lon="-2.25462">
        <ele>26.37</ele>
        <time>2018-06-15T09:33:15Z</time>
      </trkpt>
      <trkpt lat="48.64421" lon="-2.25464">
        <ele>26.55</ele>
        <time>2018-06-15T09:33:34Z</time>
      </trkpt>
      <trkpt lat="48.64422" lon="-2.25464">
        <ele>25.94</ele>
        <time>2018-06-15T09:34:05Z</time>
      </trkpt>
      <trkpt lat="48.64422" lon="-2.25464">
        <ele>25.79</ele>
        <time>2018-06-15T09:34:34Z</time>
      </trkpt>
      <trkpt lat="48.64421" lon="-2.25465">
        <ele>25.93</ele>
        <time>2018-06-15T09:35:07Z</time>
      </trkpt>
      <trkpt lat="48.6442" lon="-2.25462">
        <ele>26.33</ele>
        <time>2018-06-15T09:35:33Z</time>
      </trkpt>
      <trkpt lat="48.64423" lon="-2.25463">
        <ele>25.67</ele>
        <time>2018-06-15T09:35:55Z</time>
      </trkpt>
      <trkpt lat="48.64421" lon="-2.25462">
        <ele>25.56</ele>
        <time>2018-06-15T09:36:10Z</time>
      </trkpt>
      <trkpt lat="48.64422" lon="-2.25464">
        <ele>25.57</ele>
        <time>2018-06-15T09:36:32Z</time>
      </trkpt>
      <trkpt lat="48.64423" lon="-2.2547">
        <ele>24.91</ele>
        <time>2018-06-15T09:36:46Z</time>
      </trkpt>
      <trkpt lat="48.64419" lon="-2.25467">
        <ele>25.48</ele>
        <time>2018-06-15T09:37:09Z</time>
      </trkpt>
      <trkpt lat="48.64421" lon="-2.2547">
        <ele>25.03</ele>
        <time>2018-06-15T09:37:32Z</time>
      </trkpt>
      <trkpt lat="48.6443" lon="-2.25472">
        <ele>23.8</ele>
        <time>2018-06-15T09:37:47Z</time>
      </trkpt>
      <trkpt lat="48.64432" lon="-2.25473">
        <ele>22.91</ele>
        <time>2018-06-15T09:37:51Z</time>
      </trkpt>
      <trkpt lat="48.64434" lon="-2.25472">
        <ele>22.62</ele>
        <time>2018-06-15T09:37:53Z</time>
      </trkpt>
      <trkpt lat="48.64438" lon="-2.25461">
        <ele>21.57</ele>
        <time>2018-06-15T09:38:03Z</time>
      </trkpt>
      <trkpt lat="48.64442" lon="-2.25444">
        <ele>21.04</ele>
        <time>2018-06-15T09:38:14Z</time>
      </trkpt>
      <trkpt lat="48.6445" lon="-2.2542">
        <ele>19.67</ele>
        <time>2018-06-15T09:38:32Z</time>
      </trkpt>
      <trkpt lat="48.64461" lon="-2.25398">
        <ele>18.64</ele>
        <time>2018-06-15T09:38:48Z</time>
      </trkpt>
      <trkpt lat="48.6447" lon="-2.25381">
        <ele>17.28</ele>
        <time>2018-06-15T09:39:01Z</time>
      </trkpt>
      <trkpt lat="48.64482" lon="-2.25372">
        <ele>16.57</ele>
        <time>2018-06-15T09:39:15Z</time>
      </trkpt>
      <trkpt lat="48.64494" lon="-2.25367">
        <ele>16.14</ele>
        <time>2018-06-15T09:39:32Z</time>
      </trkpt>
      <trkpt lat="48.64487" lon="-2.25345">
        <ele>17.96</ele>
        <time>2018-06-15T09:39:47Z</time>
      </trkpt>
      <trkpt lat="48.64488" lon="-2.2534">
        <ele>17.46</ele>
        <time>2018-06-15T09:39:49Z</time>
      </trkpt>
      <trkpt lat="48.64489" lon="-2.2531">
        <ele>19.42</ele>
        <time>2018-06-15T09:40:05Z</time>
      </trkpt>
      <trkpt lat="48.64484" lon="-2.25283">
        <ele>20.54</ele>
        <time>2018-06-15T09:40:21Z</time>
      </trkpt>
      <trkpt lat="48.64474" lon="-2.25266">
        <ele>21.24</ele>
        <time>2018-06-15T09:40:39Z</time>
      </trkpt>
      <trkpt lat="48.64473" lon="-2.25261">
        <ele>21.6</ele>
        <time>2018-06-15T09:40:43Z</time>
      </trkpt>
      <trkpt lat="48.64466" lon="-2.25232">
        <ele>22.91</ele>
        <time>2018-06-15T09:40:59Z</time>
      </trkpt>
      <trkpt lat="48.64458" lon="-2.2521">
        <ele>21.92</ele>
        <time>2018-06-15T09:41:13Z</time>
      </trkpt>
      <trkpt lat="48.6445" lon="-2.25195">
        <ele>21.49</ele>
        <time>2018-06-15T09:41:24Z</time>
      </trkpt>
      <trkpt lat="48.64448" lon="-2.25169">
        <ele>21.14</ele>
        <time>2018-06-15T09:41:39Z</time>
      </trkpt>
      <trkpt lat="48.64452" lon="-2.25159">
        <ele>20.59</ele>
        <time>2018-06-15T09:41:44Z</time>
      </trkpt>
      <trkpt lat="48.64457" lon="-2.2513">
        <ele>19.93</ele>
        <time>2018-06-15T09:42:00Z</time>
      </trkpt>
      <trkpt lat="48.64466" lon="-2.25101">
        <ele>18.64</ele>
        <time>2018-06-15T09:42:16Z</time>
      </trkpt>
      <trkpt lat="48.64478" lon="-2.25084">
        <ele>18.07</ele>
        <time>2018-06-15T09:42:31Z</time>
      </trkpt>
      <trkpt lat="48.64482" lon="-2.25075">
        <ele>17.54</ele>
        <time>2018-06-15T09:42:38Z</time>
      </trkpt>
      <trkpt lat="48.64495" lon="-2.25052">
        <ele>16.3</ele>
        <time>2018-06-15T09:42:53Z</time>
      </trkpt>
      <trkpt lat="48.64503" lon="-2.25039">
        <ele>15.33</ele>
        <time>2018-06-15T09:43:01Z</time>
      </trkpt>
      <trkpt lat="48.64515" lon="-2.2502">
        <ele>13.45</ele>
        <time>2018-06-15T09:43:15Z</time>
      </trkpt>
      <trkpt lat="48.64517" lon="-2.25011">
        <ele>13.12</ele>
        <time>2018-06-15T09:43:24Z</time>
      </trkpt>
      <trkpt lat="48.64509" lon="-2.24997">
        <ele>11.72</ele>
        <time>2018-06-15T09:43:39Z</time>
      </trkpt>
      <trkpt lat="48.64503" lon="-2.24988">
        <ele>7.96</ele>
        <time>2018-06-15T09:43:52Z</time>
      </trkpt>
      <trkpt lat="48.64491" lon="-2.24969">
        <ele>8.15</ele>
        <time>2018-06-15T09:44:08Z</time>
      </trkpt>
      <trkpt lat="48.64491" lon="-2.24965">
        <ele>7.94</ele>
        <time>2018-06-15T09:44:10Z</time>
      </trkpt>
      <trkpt lat="48.64487" lon="-2.24944">
        <ele>7.2</ele>
        <time>2018-06-15T09:44:21Z</time>
      </trkpt>
      <trkpt lat="48.64485" lon="-2.24938">
        <ele>7.33</ele>
        <time>2018-06-15T09:44:26Z</time>
      </trkpt>
      <trkpt lat="48.64489" lon="-2.24925">
        <ele>7.62</ele>
        <time>2018-06-15T09:44:34Z</time>
      </trkpt>
      <trkpt lat="48.64497" lon="-2.249">
        <ele>8.5</ele>
        <time>2018-06-15T09:44:49Z</time>
      </trkpt>
      <trkpt lat="48.64499" lon="-2.24898">
        <ele>8.75</ele>
        <time>2018-06-15T09:44:51Z</time>
      </trkpt>
      <trkpt lat="48.64503" lon="-2.24895">
        <ele>9.89</ele>
        <time>2018-06-15T09:44:55Z</time>
      </trkpt>
      <trkpt lat="48.64518" lon="-2.24881">
        <ele>12.68</ele>
        <time>2018-06-15T09:45:12Z</time>
      </trkpt>
      <trkpt lat="48.6453" lon="-2.24873">
        <ele>12.3</ele>
        <time>2018-06-15T09:45:26Z</time>
      </trkpt>
      <trkpt lat="48.64535" lon="-2.24871">
        <ele>12.27</ele>
        <time>2018-06-15T09:45:40Z</time>
      </trkpt>
      <trkpt lat="48.64537" lon="-2.2487">
        <ele>12.78</ele>
        <time>2018-06-15T09:45:42Z</time>
      </trkpt>
      <trkpt lat="48.64553" lon="-2.24857">
        <ele>13.56</ele>
        <time>2018-06-15T09:46:02Z</time>
      </trkpt>
      <trkpt lat="48.6456" lon="-2.24839">
        <ele>16.68</ele>
        <time>2018-06-15T09:46:18Z</time>
      </trkpt>
      <trkpt lat="48.64568" lon="-2.24819">
        <ele>18.62</ele>
        <time>2018-06-15T09:46:35Z</time>
      </trkpt>
      <trkpt lat="48.64571" lon="-2.2481">
        <ele>18.39</ele>
        <time>2018-06-15T09:46:40Z</time>
      </trkpt>
      <trkpt lat="48.64577" lon="-2.24781">
        <ele>18.05</ele>
        <time>2018-06-15T09:46:57Z</time>
      </trkpt>
      <trkpt lat="48.6458" lon="-2.24752">
        <ele>18.2</ele>
        <time>2018-06-15T09:47:13Z</time>
      </trkpt>
      <trkpt lat="48.6457" lon="-2.24729">
        <ele>19.17</ele>
        <time>2018-06-15T09:47:30Z</time>
      </trkpt>
      <trkpt lat="48.64561" lon="-2.24712">
        <ele>21.19</ele>
        <time>2018-06-15T09:47:44Z</time>
      </trkpt>
      <trkpt lat="48.64549" lon="-2.24692">
        <ele>21.02</ele>
        <time>2018-06-15T09:48:01Z</time>
      </trkpt>
      <trkpt lat="48.64549" lon="-2.2469">
        <ele>21.44</ele>
        <time>2018-06-15T09:48:02Z</time>
      </trkpt>
      <trkpt lat="48.64547" lon="-2.24655">
        <ele>21.22</ele>
        <time>2018-06-15T09:48:21Z</time>
      </trkpt>
      <trkpt lat="48.64546" lon="-2.2464">
        <ele>21.23</ele>
        <time>2018-06-15T09:48:36Z</time>
      </trkpt>
      <trkpt lat="48.64538" lon="-2.24633">
        <ele>18.43</ele>
        <time>2018-06-15T09:48:59Z</time>
      </trkpt>
      <trkpt lat="48.64535" lon="-2.24628">
        <ele>17.35</ele>
        <time>2018-06-15T09:49:04Z</time>
      </trkpt>
      <trkpt lat="48.64532" lon="-2.24624">
        <ele>16.7</ele>
        <time>2018-06-15T09:49:21Z</time>
      </trkpt>
      <trkpt lat="48.64533" lon="-2.24626">
        <ele>16.64</ele>
        <time>2018-06-15T09:49:46Z</time>
      </trkpt>
      <trkpt lat="48.64531" lon="-2.24624">
        <ele>17.05</ele>
        <time>2018-06-15T09:49:53Z</time>
      </trkpt>
      <trkpt lat="48.64521" lon="-2.24615">
        <ele>15.78</ele>
        <time>2018-06-15T09:50:03Z</time>
      </trkpt>
      <trkpt lat="48.64502" lon="-2.24592">
        <ele>15.46</ele>
        <time>2018-06-15T09:50:21Z</time>
      </trkpt>
      <trkpt lat="48.64475" lon="-2.24595">
        <ele>16.86</ele>
        <time>2018-06-15T09:50:41Z</time>
      </trkpt>
      <trkpt lat="48.64461" lon="-2.24585">
        <ele>18.43</ele>
        <time>2018-06-15T09:50:55Z</time>
      </trkpt>
      <trkpt lat="48.64451" lon="-2.24578">
        <ele>19.96</ele>
        <time>2018-06-15T09:51:06Z</time>
      </trkpt>
      <trkpt lat="48.64434" lon="-2.24547">
        <ele>20.52</ele>
        <time>2018-06-15T09:51:27Z</time>
      </trkpt>
      <trkpt lat="48.64427" lon="-2.24523">
        <ele>21.25</ele>
        <time>2018-06-15T09:51:38Z</time>
      </trkpt>
      <trkpt lat="48.64422" lon="-2.24493">
        <ele>22.51</ele>
        <time>2018-06-15T09:51:53Z</time>
      </trkpt>
      <trkpt lat="48.64422" lon="-2.24492">
        <ele>22.68</ele>
        <time>2018-06-15T09:51:54Z</time>
      </trkpt>
      <trkpt lat="48.64419" lon="-2.24471">
        <ele>24.06</ele>
        <time>2018-06-15T09:52:10Z</time>
      </trkpt>
      <trkpt lat="48.64418" lon="-2.24466">
        <ele>24.56</ele>
        <time>2018-06-15T09:52:30Z</time>
      </trkpt>
      <trkpt lat="48.6442" lon="-2.24471">
        <ele>24.22</ele>
        <time>2018-06-15T09:52:50Z</time>
      </trkpt>
      <trkpt lat="48.64423" lon="-2.24472">
        <ele>23.54</ele>
        <time>2018-06-15T09:53:09Z</time>
      </trkpt>
      <trkpt lat="48.64425" lon="-2.2447">
        <ele>23.84</ele>
        <time>2018-06-15T09:53:34Z</time>
      </trkpt>
      <trkpt lat="48.64423" lon="-2.24478">
        <ele>24.07</ele>
        <time>2018-06-15T09:54:01Z</time>
      </trkpt>
      <trkpt lat="48.64422" lon="-2.2448">
        <ele>23.86</ele>
        <time>2018-06-15T09:54:31Z</time>
      </trkpt>
      <trkpt lat="48.64419" lon="-2.24481">
        <ele>23.81</ele>
        <time>2018-06-15T09:55:09Z</time>
      </trkpt>
      <trkpt lat="48.64419" lon="-2.24482">
        <ele>23.82</ele>
        <time>2018-06-15T09:55:10Z</time>
      </trkpt>
      <trkpt lat="48.64417" lon="-2.24485">
        <ele>24</ele>
        <time>2018-06-15T09:55:13Z</time>
      </trkpt>
      <trkpt lat="48.64415" lon="-2.24489">
        <ele>24.18</ele>
        <time>2018-06-15T09:55:17Z</time>
      </trkpt>
      <trkpt lat="48.64413" lon="-2.24493">
        <ele>24.14</ele>
        <time>2018-06-15T09:55:20Z</time>
      </trkpt>
      <trkpt lat="48.64405" lon="-2.24518">
        <ele>24.96</ele>
        <time>2018-06-15T09:55:37Z</time>
      </trkpt>
      <trkpt lat="48.64405" lon="-2.24522">
        <ele>24.79</ele>
        <time>2018-06-15T09:55:39Z</time>
      </trkpt>
      <trkpt lat="48.64403" lon="-2.24544">
        <ele>23.79</ele>
        <time>2018-06-15T09:55:57Z</time>
      </trkpt>
      <trkpt lat="48.64397" lon="-2.24555">
        <ele>23.51</ele>
        <time>2018-06-15T09:56:12Z</time>
      </trkpt>
      <trkpt lat="48.64389" lon="-2.24562">
        <ele>24.44</ele>
        <time>2018-06-15T09:56:20Z</time>
      </trkpt>
      <trkpt lat="48.64378" lon="-2.24583">
        <ele>25.83</ele>
        <time>2018-06-15T09:56:36Z</time>
      </trkpt>
      <trkpt lat="48.64366" lon="-2.24589">
        <ele>26.28</ele>
        <time>2018-06-15T09:56:52Z</time>
      </trkpt>
      <trkpt lat="48.6436" lon="-2.2459">
        <ele>25.88</ele>
        <time>2018-06-15T09:57:17Z</time>
      </trkpt>
      <trkpt lat="48.64359" lon="-2.2459">
        <ele>25.85</ele>
        <time>2018-06-15T09:57:39Z</time>
      </trkpt>
      <trkpt lat="48.64359" lon="-2.24586">
        <ele>26.5</ele>
        <time>2018-06-15T09:57:59Z</time>
      </trkpt>
    </trkseg>
  </trk>
</gpx>